Observation data for Guadalupe Mtns Park on 11/11/2019      Previous  Date       Current Mesonet Observations  Soil Data  Daily Summary Page  Observations in Plain Language
KGU1 110600Z 27027G35KT 18/08 A3005 RMK A01 T01820081  RH  053%=      5-min Rain = 0
KGU1 110601Z 27029G36KT 18/08 A3005 RMK A01 T01820080  RH  053%=      5-min Rain = 0
KGU1 110602Z 27025G31KT 18/08 A3005 RMK A01 T01820080  RH  053%=      5-min Rain = 0
KGU1 110603Z 26026G33KT 18/08 A3004 RMK A01 T01820080  RH  053%=      5-min Rain = 0
KGU1 110604Z 26025G31KT 18/08 A3005 RMK A01 T01820081  RH  053%=      5-min Rain = 0
KGU1 110605Z 26023G29KT 18/08 A3005 RMK A01 T01820080  RH  053%=      5-min Rain = 0
KGU1 110606Z 25018G26KT 18/08 A3005 RMK A01 T01820080  RH  053%=      5-min Rain = 0
KGU1 110607Z 26029G36KT 18/08 A3005 RMK A01 T01820080  RH  053%=      5-min Rain = 0
KGU1 110608Z 26021G26KT 18/08 A3005 RMK A01 T01830079  RH  052%=      5-min Rain = 0
KGU1 110609Z 26028KT 18/08 A3005 RMK A01 T01830079  RH  052%=      5-min Rain = 0
KGU1 110610Z 26024G30KT 18/08 A3005 RMK A01 T01830079  RH  052%=      5-min Rain = 0
KGU1 110611Z 27023G28KT 18/08 A3005 RMK A01 T01830079  RH  052%=      5-min Rain = 0
KGU1 110612Z 27026G40KT 18/08 A3005 RMK A01 T01830079  RH  052%=      5-min Rain = 0
KGU1 110613Z 27025G34KT 18/08 A3006 RMK A01 T01830080  RH  052%=      5-min Rain = 0
KGU1 110614Z 26028G35KT 18/08 A3005 RMK A01 T01830079  RH  052%=      5-min Rain = 0
KGU1 110615Z 26026G33KT 18/08 A3005 RMK A01 T01830080  RH  052%=      5-min Rain = 0
KGU1 110616Z 26025G33KT 18/08 A3005 RMK A01 T01830080  RH  052%=      5-min Rain = 0
KGU1 110617Z 27027KT 18/08 A3005 RMK A01 T01830080  RH  052%=      5-min Rain = 0
KGU1 110618Z 26031G40KT 18/08 A3005 RMK A01 T01830080  RH  052%=      5-min Rain = 0
KGU1 110619Z 27025G32KT 18/08 A3005 RMK A01 T01840081  RH  052%=      5-min Rain = 0
KGU1 110620Z 26026G35KT 18/08 A3005 RMK A01 T01840081  RH  052%=      5-min Rain = 0
KGU1 110621Z 26025G31KT 18/08 A3005 RMK A01 T01840081  RH  052%=      5-min Rain = 0
KGU1 110622Z 26027G39KT 18/08 A3005 RMK A01 T01840082  RH  053%=      5-min Rain = 0
KGU1 110623Z 26025G34KT 18/08 A3005 RMK A01 T01840081  RH  053%=      5-min Rain = 0
KGU1 110624Z 27029G39KT 19/08 A3005 RMK A01 T01850082  RH  053%=      5-min Rain = 0
KGU1 110625Z 27028G33KT 19/08 A3005 RMK A01 T01850082  RH  052%=      5-min Rain = 0
KGU1 110626Z 26031G39KT 19/08 A3005 RMK A01 T01850081  RH  052%=      5-min Rain = 0
KGU1 110627Z 26026G34KT 19/08 A3005 RMK A01 T01850081  RH  052%=      5-min Rain = 0
KGU1 110628Z 26025G30KT 18/08 A3005 RMK A01 T01840081  RH  052%=      5-min Rain = 0
KGU1 110629Z 26023G32KT 18/08 A3005 RMK A01 T01830080  RH  052%=      5-min Rain = 0
KGU1 110630Z 25023G28KT 18/08 A3005 RMK A01 T01830080  RH  053%=      5-min Rain = 0
KGU1 110631Z 26026G34KT 18/08 A3005 RMK A01 T01830081  RH  053%=      5-min Rain = 0
KGU1 110632Z 26025G32KT 18/08 A3005 RMK A01 T01830081  RH  053%=      5-min Rain = 0
KGU1 110633Z 26025G33KT 18/08 A3005 RMK A01 T01830081  RH  053%=      5-min Rain = 0
KGU1 110634Z 26024G34KT 18/08 A3005 RMK A01 T01840081  RH  053%=      5-min Rain = 0
KGU1 110635Z 26027G36KT 18/08 A3005 RMK A01 T01840081  RH  052%=      5-min Rain = 0
KGU1 110636Z 26023G36KT 18/08 A3005 RMK A01 T01840081  RH  052%=      5-min Rain = 0
KGU1 110637Z 27027G32KT 18/08 A3005 RMK A01 T01840081  RH  053%=      5-min Rain = 0
KGU1 110638Z 27030G37KT 18/08 A3005 RMK A01 T01840082  RH  053%=      5-min Rain = 0
KGU1 110639Z 26028G39KT 19/08 A3004 RMK A01 T01850082  RH  052%=      5-min Rain = 0
KGU1 110640Z 26031G37KT 19/08 A3005 RMK A01 T01850081  RH  052%=      5-min Rain = 0
KGU1 110641Z 27030KT 19/08 A3004 RMK A01 T01850081  RH  052%=      5-min Rain = 0
KGU1 110642Z 26025G30KT 19/08 A3005 RMK A01 T01850081  RH  052%=      5-min Rain = 0
KGU1 110643Z 27026G31KT 18/08 A3004 RMK A01 T01840081  RH  052%=      5-min Rain = 0
KGU1 110644Z 26025G30KT 18/08 A3005 RMK A01 T01840081  RH  053%=      5-min Rain = 0
KGU1 110645Z 26029G34KT 18/08 A3004 RMK A01 T01830081  RH  053%=      5-min Rain = 0
KGU1 110646Z 26028G35KT 18/08 A3004 RMK A01 T01840082  RH  053%=      5-min Rain = 0
KGU1 110647Z 26025G39KT 18/08 A3004 RMK A01 T01840082  RH  053%=      5-min Rain = 0
KGU1 110648Z 27030G40KT 18/08 A3004 RMK A01 T01840082  RH  053%=      5-min Rain = 0
KGU1 110649Z 26029G35KT 18/08 A3004 RMK A01 T01840082  RH  053%=      5-min Rain = 0
KGU1 110650Z 27029G41KT 19/08 A3004 RMK A01 T01850082  RH  052%=      5-min Rain = 0
KGU1 110651Z 26027G34KT 19/08 A3004 RMK A01 T01850082  RH  052%=      5-min Rain = 0
KGU1 110652Z 26029G37KT 19/08 A3004 RMK A01 T01850082  RH  052%=      5-min Rain = 0
KGU1 110653Z 27032G40KT 19/08 A3004 RMK A01 T01850082  RH  052%=      5-min Rain = 0
KGU1 110654Z 26028G39KT 19/08 A3003 RMK A01 T01850082  RH  052%=      5-min Rain = 0
KGU1 110655Z 26026G31KT 18/08 A3004 RMK A01 T01840081  RH  052%=      5-min Rain = 0
KGU1 110656Z 26026G34KT 18/08 A3004 RMK A01 T01840081  RH  052%=      5-min Rain = 0
KGU1 110657Z 26028G37KT 18/08 A3003 RMK A01 T01840081  RH  053%=      5-min Rain = 0
KGU1 110658Z 26028G38KT 18/08 A3004 RMK A01 T01840081  RH  053%=      5-min Rain = 0
KGU1 110659Z 27032G39KT 18/08 A3003 RMK A01 T01840081  RH  053%=      5-min Rain = 0
KGU1 110700Z 26029G34KT 18/08 A3003 RMK A01 T01840082  RH  053%=      5-min Rain = 0
KGU1 110701Z 27031G37KT 18/08 A3003 RMK A01 T01840082  RH  053%=      5-min Rain = 0
KGU1 110702Z 26032KT 18/08 A3003 RMK A01 T01840082  RH  053%=      5-min Rain = 0
KGU1 110703Z 27028G34KT 18/08 A3004 RMK A01 T01840082  RH  053%=      5-min Rain = 0
KGU1 110704Z 26027G33KT 18/08 A3003 RMK A01 T01830082  RH  053%=      5-min Rain = 0
KGU1 110705Z 27028G34KT 18/08 A3004 RMK A01 T01840082  RH  053%=      5-min Rain = 0
KGU1 110706Z 26027G35KT 18/08 A3003 RMK A01 T01830082  RH  053%=      5-min Rain = 0
KGU1 110707Z 26030G38KT 18/08 A3003 RMK A01 T01830082  RH  053%=      5-min Rain = 0
KGU1 110708Z 26026G31KT 18/08 A3003 RMK A01 T01830081  RH  053%=      5-min Rain = 0
KGU1 110709Z 26027G37KT 18/08 A3003 RMK A01 T01830081  RH  053%=      5-min Rain = 0
KGU1 110710Z 26028G36KT 18/08 A3003 RMK A01 T01830080  RH  052%=      5-min Rain = 0
KGU1 110711Z 27030G36KT 18/08 A3003 RMK A01 T01830080  RH  052%=      5-min Rain = 0
KGU1 110712Z 27027G36KT 18/08 A3003 RMK A01 T01840081  RH  052%=      5-min Rain = 0
KGU1 110713Z 26029G39KT 18/08 A3003 RMK A01 T01840080  RH  052%=      5-min Rain = 0
KGU1 110714Z 27029G37KT 19/08 A3003 RMK A01 T01850080  RH  052%=      5-min Rain = 0
KGU1 110715Z 27028G36KT 19/08 A3003 RMK A01 T01850080  RH  052%=      5-min Rain = 0
KGU1 110716Z 27027G35KT 19/08 A3003 RMK A01 T01850080  RH  052%=      5-min Rain = 0
KGU1 110717Z 26030KT 19/08 A3003 RMK A01 T01850080  RH  052%=      5-min Rain = 0
KGU1 110718Z 26026G32KT 19/08 A3003 RMK A01 T01850080  RH  052%=      5-min Rain = 0
KGU1 110719Z 26028G34KT 19/08 A3003 RMK A01 T01850080  RH  052%=      5-min Rain = 0
KGU1 110720Z 26028G36KT 18/08 A3003 RMK A01 T01840080  RH  052%=      5-min Rain = 0
KGU1 110721Z 26031G40KT 19/08 A3003 RMK A01 T01850080  RH  052%=      5-min Rain = 0
KGU1 110722Z 27032G38KT 19/08 A3003 RMK A01 T01850080  RH  052%=      5-min Rain = 0
KGU1 110723Z 27031G39KT 19/08 A3003 RMK A01 T01850080  RH  052%=      5-min Rain = 0
KGU1 110724Z 27030G36KT 18/08 A3003 RMK A01 T01840080  RH  052%=      5-min Rain = 0
KGU1 110725Z 27032G40KT 18/08 A3003 RMK A01 T01840079  RH  052%=      5-min Rain = 0
KGU1 110726Z 26029G40KT 19/08 A3003 RMK A01 T01850079  RH  052%=      5-min Rain = 0
KGU1 110727Z 27027G32KT 19/08 A3004 RMK A01 T01850079  RH  051%=      5-min Rain = 0
KGU1 110728Z 27031G38KT 19/08 A3003 RMK A01 T01850079  RH  051%=      5-min Rain = 0
KGU1 110729Z 26028G35KT 19/08 A3004 RMK A01 T01850080  RH  052%=      5-min Rain = 0
KGU1 110730Z 26029G34KT 19/08 A3003 RMK A01 T01850079  RH  051%=      5-min Rain = 0
KGU1 110731Z 27027G37KT 19/08 A3004 RMK A01 T01850078  RH  051%=      5-min Rain = 0
KGU1 110732Z 27029KT 19/08 A3003 RMK A01 T01850079  RH  051%=      5-min Rain = 0
KGU1 110733Z 26028G35KT 19/08 A3004 RMK A01 T01850078  RH  051%=      5-min Rain = 0
KGU1 110734Z 27026G33KT 19/08 A3004 RMK A01 T01850078  RH  051%=      5-min Rain = 0
KGU1 110735Z 27023G32KT 19/08 A3004 RMK A01 T01850078  RH  051%=      5-min Rain = 0
KGU1 110736Z 26026G36KT 18/08 A3004 RMK A01 T01840078  RH  051%=      5-min Rain = 0
KGU1 110737Z 26025G35KT 18/08 A3004 RMK A01 T01840077  RH  051%=      5-min Rain = 0
KGU1 110738Z 27030G37KT 19/08 A3003 RMK A01 T01850076  RH  050%=      5-min Rain = 0
KGU1 110739Z 26027G36KT 19/08 A3004 RMK A01 T01860075  RH  050%=      5-min Rain = 0
KGU1 110740Z 26025G31KT 19/08 A3004 RMK A01 T01860075  RH  050%=      5-min Rain = 0
KGU1 110741Z 26025G34KT 19/07 A3004 RMK A01 T01860074  RH  049%=      5-min Rain = 0
KGU1 110742Z 26026G35KT 19/07 A3004 RMK A01 T01860074  RH  049%=      5-min Rain = 0
KGU1 110743Z 26025G33KT 19/07 A3004 RMK A01 T01860074  RH  049%=      5-min Rain = 0
KGU1 110744Z 26023KT 19/07 A3004 RMK A01 T01860074  RH  049%=      5-min Rain = 0
KGU1 110745Z 27025G32KT 19/08 A3004 RMK A01 T01850075  RH  050%=      5-min Rain = 0
KGU1 110746Z 27025G32KT 19/08 A3004 RMK A01 T01850075  RH  050%=      5-min Rain = 0
KGU1 110747Z 26028G36KT 19/07 A3004 RMK A01 T01850074  RH  050%=      5-min Rain = 0
KGU1 110748Z 27029G36KT 19/07 A3004 RMK A01 T01850074  RH  049%=      5-min Rain = 0
KGU1 110749Z 27030G37KT 19/07 A3004 RMK A01 T01860071  RH  048%=      5-min Rain = 0
KGU1 110750Z 27028G37KT 19/07 A3004 RMK A01 T01860070  RH  048%=      5-min Rain = 0
KGU1 110751Z 26031G45KT 19/07 A3004 RMK A01 T01860069  RH  048%=      5-min Rain = 0
KGU1 110752Z 27027G37KT 19/07 A3005 RMK A01 T01860072  RH  048%=      5-min Rain = 0
KGU1 110753Z 26020KT 19/07 A3004 RMK A01 T01850074  RH  050%=      5-min Rain = 0
KGU1 110754Z 27021G28KT 18/08 A3005 RMK A01 T01830075  RH  051%=      5-min Rain = 0
KGU1 110755Z 26026G31KT 18/08 A3004 RMK A01 T01820075  RH  051%=      5-min Rain = 0
KGU1 110756Z 27025G32KT 18/08 A3005 RMK A01 T01820075  RH  051%=      5-min Rain = 0
KGU1 110757Z 27026G34KT 18/08 A3004 RMK A01 T01820076  RH  051%=      5-min Rain = 0
KGU1 110758Z 27026KT 18/07 A3005 RMK A01 T01820073  RH  050%=      5-min Rain = 0
KGU1 110759Z 27026G34KT 18/07 A3004 RMK A01 T01830071  RH  049%=      5-min Rain = 0
KGU1 110800Z 27024G30KT 18/07 A3005 RMK A01 T01820073  RH  050%=      5-min Rain = 0
KGU1 110801Z 26028G34KT 18/07 A3004 RMK A01 T01820070  RH  049%=      5-min Rain = 0
KGU1 110802Z 27028G33KT 18/07 A3004 RMK A01 T01830071  RH  049%=      5-min Rain = 0
KGU1 110803Z 26026G37KT 18/07 A3004 RMK A01 T01830070  RH  049%=      5-min Rain = 0
KGU1 110804Z 27026KT 18/07 A3004 RMK A01 T01830069  RH  048%=      5-min Rain = 0
KGU1 110805Z 26026G33KT 18/07 A3004 RMK A01 T01830068  RH  048%=      5-min Rain = 0
KGU1 110806Z 26028G33KT 18/07 A3004 RMK A01 T01830069  RH  048%=      5-min Rain = 0
KGU1 110807Z 26028G36KT 18/07 A3004 RMK A01 T01830069  RH  049%=      5-min Rain = 0
KGU1 110808Z 26031G38KT 18/07 A3004 RMK A01 T01820068  RH  048%=      5-min Rain = 0
KGU1 110809Z 27032G39KT 18/07 A3004 RMK A01 T01830065  RH  047%=      5-min Rain = 0
KGU1 110810Z 27029G35KT 18/07 A3004 RMK A01 T01830065  RH  047%=      5-min Rain = 0
KGU1 110811Z 27024G31KT 18/07 A3004 RMK A01 T01830065  RH  047%=      5-min Rain = 0
KGU1 110812Z 27026G35KT 18/07 A3005 RMK A01 T01820067  RH  048%=      5-min Rain = 0
KGU1 110813Z 26030G36KT 18/06 A3004 RMK A01 T01820063  RH  047%=      5-min Rain = 0
KGU1 110814Z 27027G36KT 18/06 A3004 RMK A01 T01830063  RH  047%=      5-min Rain = 0
KGU1 110815Z 27028G34KT 18/06 A3004 RMK A01 T01830063  RH  046%=      5-min Rain = 0
KGU1 110816Z 27027G35KT 18/07 A3004 RMK A01 T01830065  RH  047%=      5-min Rain = 0
KGU1 110817Z 27028G36KT 18/07 A3004 RMK A01 T01820065  RH  047%=      5-min Rain = 0
KGU1 110818Z 27033G40KT 18/06 A3003 RMK A01 T01830064  RH  047%=      5-min Rain = 0
KGU1 110819Z 27032G39KT 18/06 A3003 RMK A01 T01840064  RH  046%=      5-min Rain = 0
KGU1 110820Z 27030KT 18/06 A3004 RMK A01 T01840063  RH  046%=      5-min Rain = 0
KGU1 110821Z 27030G38KT 18/06 A3004 RMK A01 T01840062  RH  046%=      5-min Rain = 0
KGU1 110822Z 27030G36KT 18/06 A3003 RMK A01 T01840063  RH  046%=      5-min Rain = 0
KGU1 110823Z 28029G36KT 18/06 A3004 RMK A01 T01840062  RH  046%=      5-min Rain = 0
KGU1 110824Z 27026G35KT 18/06 A3004 RMK A01 T01840061  RH  045%=      5-min Rain = 0
KGU1 110825Z 27029KT 19/06 A3003 RMK A01 T01850058  RH  044%=      5-min Rain = 0
KGU1 110826Z 27026G35KT 19/06 A3003 RMK A01 T01850057  RH  044%=      5-min Rain = 0
KGU1 110827Z 27032G38KT 19/06 A3003 RMK A01 T01850056  RH  044%=      5-min Rain = 0
KGU1 110828Z 26027G41KT 19/06 A3003 RMK A01 T01860057  RH  044%=      5-min Rain = 0
KGU1 110829Z 27030KT 19/06 A3003 RMK A01 T01860056  RH  044%=      5-min Rain = 0
KGU1 110830Z 27031G40KT 19/06 A3003 RMK A01 T01860056  RH  043%=      5-min Rain = 0
KGU1 110831Z 27032G38KT 19/06 A3003 RMK A01 T01870056  RH  043%=      5-min Rain = 0
KGU1 110832Z 27029G37KT 19/06 A3003 RMK A01 T01860057  RH  044%=      5-min Rain = 0
KGU1 110833Z 26030G36KT 19/06 A3002 RMK A01 T01860057  RH  044%=      5-min Rain = 0
KGU1 110834Z 27031G41KT 19/06 A3003 RMK A01 T01870056  RH  043%=      5-min Rain = 0
KGU1 110835Z 27033G42KT 19/06 A3002 RMK A01 T01870056  RH  043%=      5-min Rain = 0
KGU1 110836Z 27033G39KT 19/06 A3002 RMK A01 T01870056  RH  043%=      5-min Rain = 0
KGU1 110837Z 27034G40KT 19/06 A3003 RMK A01 T01870055  RH  043%=      5-min Rain = 0
KGU1 110838Z 27032G39KT 19/06 A3002 RMK A01 T01870056  RH  043%=      5-min Rain = 0
KGU1 110839Z 27027G34KT 19/06 A3003 RMK A01 T01850056  RH  044%=      5-min Rain = 0
KGU1 110840Z 27029G38KT 19/06 A3002 RMK A01 T01850055  RH  044%=      5-min Rain = 0
KGU1 110841Z 27032G40KT 18/06 A3002 RMK A01 T01840057  RH  044%=      5-min Rain = 0
KGU1 110842Z 27031G38KT 18/06 A3002 RMK A01 T01830057  RH  044%=      5-min Rain = 0
KGU1 110843Z 27032G40KT 18/06 A3002 RMK A01 T01830058  RH  045%=      5-min Rain = 0
KGU1 110844Z 27033G40KT 18/06 A3003 RMK A01 T01820059  RH  045%=      5-min Rain = 0
KGU1 110845Z 26025G41KT 18/06 A3002 RMK A01 T01810061  RH  046%=      5-min Rain = 0
KGU1 110846Z 26022G34KT 18/06 A3003 RMK A01 T01800061  RH  047%=      5-min Rain = 0
KGU1 110847Z 26028KT 18/06 A3002 RMK A01 T01800059  RH  046%=      5-min Rain = 0
KGU1 110848Z 27034KT 18/06 A3003 RMK A01 T01810058  RH  046%=      5-min Rain = 0
KGU1 110849Z 27028G37KT 18/06 A3003 RMK A01 T01820058  RH  045%=      5-min Rain = 0
KGU1 110850Z 27031G38KT 18/06 A3003 RMK A01 T01820059  RH  046%=      5-min Rain = 0
KGU1 110851Z 27033G38KT 18/06 A3002 RMK A01 T01810059  RH  046%=      5-min Rain = 0
KGU1 110852Z 27029G37KT 18/06 A3002 RMK A01 T01800060  RH  046%=      5-min Rain = 0
KGU1 110853Z 27026G34KT 18/06 A3003 RMK A01 T01800059  RH  046%=      5-min Rain = 0
KGU1 110854Z 27028G38KT 18/06 A3002 RMK A01 T01800059  RH  046%=      5-min Rain = 0
KGU1 110855Z 27033G42KT 18/06 A3002 RMK A01 T01800058  RH  046%=      5-min Rain = 0
KGU1 110856Z 27032G37KT 18/06 A3002 RMK A01 T01800059  RH  046%=      5-min Rain = 0
KGU1 110857Z 27029G35KT 18/06 A3003 RMK A01 T01790060  RH  047%=      5-min Rain = 0
KGU1 110858Z 27031G36KT 18/06 A3002 RMK A01 T01790060  RH  047%=      5-min Rain = 0
KGU1 110859Z 27026KT 18/06 A3003 RMK A01 T01780058  RH  046%=      5-min Rain = 0
KGU1 110900Z 27032G38KT 18/06 A3003 RMK A01 T01790057  RH  046%=      5-min Rain = 0
KGU1 110901Z 27030G35KT 18/06 A3003 RMK A01 T01800056  RH  045%=      5-min Rain = 0
KGU1 110902Z 27032G37KT 18/06 A3003 RMK A01 T01800056  RH  045%=      5-min Rain = 0
KGU1 110903Z 27029G35KT 18/06 A3003 RMK A01 T01790058  RH  046%=      5-min Rain = 0
KGU1 110904Z 27029G35KT 18/06 A3002 RMK A01 T01790058  RH  046%=      5-min Rain = 0
KGU1 110905Z 27031G37KT 18/06 A3002 RMK A01 T01790059  RH  046%=      5-min Rain = 0
KGU1 110906Z 27029G38KT 18/06 A3003 RMK A01 T01790059  RH  047%=      5-min Rain = 0
KGU1 110907Z 27032KT 18/06 A3003 RMK A01 T01790059  RH  046%=      5-min Rain = 0
KGU1 110908Z 27027G33KT 18/06 A3002 RMK A01 T01800060  RH  047%=      5-min Rain = 0
KGU1 110909Z 26028G37KT 18/06 A3003 RMK A01 T01790060  RH  047%=      5-min Rain = 0
KGU1 110910Z 27031G38KT 18/06 A3002 RMK A01 T01800059  RH  046%=      5-min Rain = 0
KGU1 110911Z 27032G41KT 18/06 A3003 RMK A01 T01810059  RH  046%=      5-min Rain = 0
KGU1 110912Z 27024G33KT 18/06 A3003 RMK A01 T01810060  RH  046%=      5-min Rain = 0
KGU1 110913Z 27029G36KT 18/06 A3002 RMK A01 T01810059  RH  046%=      5-min Rain = 0
KGU1 110914Z 27030G37KT 18/06 A3002 RMK A01 T01800060  RH  046%=      5-min Rain = 0
KGU1 110915Z 27028G33KT 18/06 A3003 RMK A01 T01800061  RH  047%=      5-min Rain = 0
KGU1 110916Z 27029G37KT 18/06 A3003 RMK A01 T01810060  RH  046%=      5-min Rain = 0
KGU1 110917Z 27026G34KT 18/06 A3003 RMK A01 T01820060  RH  046%=      5-min Rain = 0
KGU1 110918Z 27030G36KT 18/06 A3003 RMK A01 T01810060  RH  046%=      5-min Rain = 0
KGU1 110919Z 26029G35KT 18/06 A3002 RMK A01 T01810060  RH  046%=      5-min Rain = 0
KGU1 110920Z 27028G37KT 18/06 A3003 RMK A01 T01810059  RH  046%=      5-min Rain = 0
KGU1 110921Z 27030G38KT 18/06 A3003 RMK A01 T01810057  RH  045%=      5-min Rain = 0
KGU1 110922Z 27030G35KT 18/06 A3003 RMK A01 T01810056  RH  045%=      5-min Rain = 0
KGU1 110923Z 27028G36KT 18/06 A3003 RMK A01 T01800058  RH  046%=      5-min Rain = 0
KGU1 110924Z 27033G42KT 18/06 A3002 RMK A01 T01790060  RH  046%=      5-min Rain = 0
KGU1 110925Z 27031G37KT 18/06 A3002 RMK A01 T01800060  RH  046%=      5-min Rain = 0
KGU1 110926Z 27025G31KT 18/06 A3002 RMK A01 T01800061  RH  047%=      5-min Rain = 0
KGU1 110927Z 27030G36KT 18/06 A3002 RMK A01 T01810061  RH  046%=      5-min Rain = 0
KGU1 110928Z 27026G33KT 18/06 A3002 RMK A01 T01810059  RH  046%=      5-min Rain = 0
KGU1 110929Z 27027G35KT 18/06 A3002 RMK A01 T01820059  RH  045%=      5-min Rain = 0
KGU1 110930Z 27031G40KT 18/06 A3002 RMK A01 T01820057  RH  045%=      5-min Rain = 0
KGU1 110931Z 27031G39KT 18/06 A3002 RMK A01 T01830056  RH  044%=      5-min Rain = 0
KGU1 110932Z 27030G35KT 18/06 A3002 RMK A01 T01830055  RH  044%=      5-min Rain = 0
KGU1 110933Z 27031G39KT 18/05 A3002 RMK A01 T01830054  RH  044%=      5-min Rain = 0
KGU1 110934Z 27030G35KT 18/05 A3002 RMK A01 T01830052  RH  043%=      5-min Rain = 0
KGU1 110935Z 26029G35KT 18/05 A3002 RMK A01 T01830052  RH  043%=      5-min Rain = 0
KGU1 110936Z 27023G28KT 18/05 A3003 RMK A01 T01830053  RH  043%=      5-min Rain = 0
KGU1 110937Z 26028G34KT 18/05 A3003 RMK A01 T01820053  RH  044%=      5-min Rain = 0
KGU1 110938Z 27026G36KT 18/05 A3003 RMK A01 T01810054  RH  044%=      5-min Rain = 0
KGU1 110939Z 27029G35KT 18/05 A3003 RMK A01 T01810054  RH  044%=      5-min Rain = 0
KGU1 110940Z 27026G31KT 18/06 A3003 RMK A01 T01810055  RH  045%=      5-min Rain = 0
KGU1 110941Z 27027G34KT 18/06 A3003 RMK A01 T01800055  RH  045%=      5-min Rain = 0
KGU1 110942Z 26028KT 18/06 A3002 RMK A01 T01800055  RH  045%=      5-min Rain = 0
KGU1 110943Z 27024G32KT 18/06 A3003 RMK A01 T01800055  RH  045%=      5-min Rain = 0
KGU1 110944Z 27026G35KT 18/06 A3003 RMK A01 T01790055  RH  045%=      5-min Rain = 0
KGU1 110945Z 27027G33KT 18/05 A3003 RMK A01 T01790054  RH  045%=      5-min Rain = 0
KGU1 110946Z 27029G37KT 18/05 A3003 RMK A01 T01790054  RH  045%=      5-min Rain = 0
KGU1 110947Z 27029G35KT 18/05 A3002 RMK A01 T01800053  RH  044%=      5-min Rain = 0
KGU1 110948Z 27026G33KT 18/05 A3003 RMK A01 T01800053  RH  044%=      5-min Rain = 0
KGU1 110949Z 27027G37KT 18/05 A3002 RMK A01 T01800054  RH  044%=      5-min Rain = 0
KGU1 110950Z 27027G32KT 18/06 A3002 RMK A01 T01790057  RH  045%=      5-min Rain = 0
KGU1 110951Z 27028G33KT 18/06 A3003 RMK A01 T01780057  RH  046%=      5-min Rain = 0
KGU1 110952Z 27026G35KT 18/06 A3002 RMK A01 T01780057  RH  046%=      5-min Rain = 0
KGU1 110953Z 28024G34KT 18/06 A3003 RMK A01 T01780057  RH  046%=      5-min Rain = 0
KGU1 110954Z 27025G31KT 18/06 A3002 RMK A01 T01770058  RH  046%=      5-min Rain = 0
KGU1 110955Z 27023G30KT 18/06 A3002 RMK A01 T01770057  RH  046%=      5-min Rain = 0
KGU1 110956Z 27030G35KT 18/06 A3002 RMK A01 T01780056  RH  046%=      5-min Rain = 0
KGU1 110957Z 27025G34KT 18/05 A3002 RMK A01 T01790054  RH  045%=      5-min Rain = 0
KGU1 110958Z 27027G36KT 18/06 A3002 RMK A01 T01790055  RH  045%=      5-min Rain = 0
KGU1 110959Z 27030G38KT 18/06 A3002 RMK A01 T01790055  RH  045%=      5-min Rain = 0
KGU1 111000Z 27026G32KT 18/05 A3002 RMK A01 T01790054  RH  044%=      5-min Rain = 0
KGU1 111001Z 26019KT 18/06 A3003 RMK A01 T01790056  RH  045%=      5-min Rain = 0
KGU1 111002Z 27024G31KT 18/06 A3002 RMK A01 T01780055  RH  045%=      5-min Rain = 0
KGU1 111003Z 27027G32KT 18/05 A3002 RMK A01 T01790053  RH  044%=      5-min Rain = 0
KGU1 111004Z 27026G33KT 18/05 A3002 RMK A01 T01800053  RH  044%=      5-min Rain = 0
KGU1 111005Z 27024G31KT 18/05 A3002 RMK A01 T01800054  RH  045%=      5-min Rain = 0
KGU1 111006Z 27025G34KT 18/05 A3003 RMK A01 T01790054  RH  045%=      5-min Rain = 0
KGU1 111007Z 27027G33KT 18/05 A3002 RMK A01 T01790053  RH  044%=      5-min Rain = 0
KGU1 111008Z 26028G36KT 18/05 A3002 RMK A01 T01790053  RH  044%=      5-min Rain = 0
KGU1 111009Z 27028G34KT 18/06 A3002 RMK A01 T01790056  RH  046%=      5-min Rain = 0
KGU1 111010Z 27022G28KT 18/06 A3003 RMK A01 T01780055  RH  045%=      5-min Rain = 0
KGU1 111011Z 27022G33KT 18/06 A3003 RMK A01 T01770056  RH  046%=      5-min Rain = 0
KGU1 111012Z 27024G31KT 18/06 A3002 RMK A01 T01770055  RH  046%=      5-min Rain = 0
KGU1 111013Z 27030G41KT 18/05 A3002 RMK A01 T01770053  RH  045%=      5-min Rain = 0
KGU1 111014Z 27028G39KT 18/05 A3002 RMK A01 T01780053  RH  045%=      5-min Rain = 0
KGU1 111015Z 28024G32KT 18/05 A3003 RMK A01 T01780054  RH  045%=      5-min Rain = 0
KGU1 111016Z 28017KT 18/05 A3003 RMK A01 T01780053  RH  045%=      5-min Rain = 0
KGU1 111017Z 27024G30KT 18/05 A3003 RMK A01 T01780051  RH  044%=      5-min Rain = 0
KGU1 111018Z 28025G30KT 18/05 A3003 RMK A01 T01780051  RH  044%=      5-min Rain = 0
KGU1 111019Z 27023G31KT 18/05 A3003 RMK A01 T01790051  RH  044%=      5-min Rain = 0
KGU1 111020Z 27022G30KT 18/05 A3003 RMK A01 T01790050  RH  043%=      5-min Rain = 0
KGU1 111021Z 27025G30KT 18/05 A3003 RMK A01 T01790050  RH  043%=      5-min Rain = 0
KGU1 111022Z 27021G29KT 18/05 A3003 RMK A01 T01790050  RH  044%=      5-min Rain = 0
KGU1 111023Z 28023G28KT 18/05 A3003 RMK A01 T01790049  RH  043%=      5-min Rain = 0
KGU1 111024Z 28020G26KT 18/05 A3003 RMK A01 T01790050  RH  044%=      5-min Rain = 0
KGU1 111025Z 27022G34KT 18/05 A3003 RMK A01 T01780051  RH  044%=      5-min Rain = 0
KGU1 111026Z 27024G31KT 18/05 A3003 RMK A01 T01790049  RH  043%=      5-min Rain = 0
KGU1 111027Z 28020G25KT 18/05 A3003 RMK A01 T01790049  RH  043%=      5-min Rain = 0
KGU1 111028Z 28018G23KT 18/05 A3003 RMK A01 T01790049  RH  043%=      5-min Rain = 0
KGU1 111029Z 28017G26KT 18/05 A3004 RMK A01 T01780048  RH  043%=      5-min Rain = 0
KGU1 111030Z 27021G27KT 18/05 A3003 RMK A01 T01790047  RH  043%=      5-min Rain = 0
KGU1 111031Z 28018G26KT 18/05 A3004 RMK A01 T01790048  RH  043%=      5-min Rain = 0
KGU1 111032Z 28018KT 18/05 A3004 RMK A01 T01780050  RH  044%=      5-min Rain = 0
KGU1 111033Z 27018G27KT 18/05 A3003 RMK A01 T01780049  RH  043%=      5-min Rain = 0
KGU1 111034Z 28021G29KT 18/05 A3003 RMK A01 T01780049  RH  043%=      5-min Rain = 0
KGU1 111035Z 28017G25KT 18/05 A3004 RMK A01 T01780049  RH  043%=      5-min Rain = 0
KGU1 111036Z 28017G24KT 18/05 A3004 RMK A01 T01780049  RH  044%=      5-min Rain = 0
KGU1 111037Z 29020KT 18/05 A3004 RMK A01 T01780049  RH  044%=      5-min Rain = 0
KGU1 111038Z 28018KT 18/05 A3004 RMK A01 T01780049  RH  043%=      5-min Rain = 0
KGU1 111039Z 28019G25KT 18/05 A3005 RMK A01 T01780049  RH  043%=      5-min Rain = 0
KGU1 111040Z 28017KT 18/05 A3005 RMK A01 T01790048  RH  043%=      5-min Rain = 0
KGU1 111041Z 27018KT 18/05 A3005 RMK A01 T01780048  RH  043%=      5-min Rain = 0
KGU1 111042Z 28016G23KT 18/05 A3005 RMK A01 T01780048  RH  043%=      5-min Rain = 0
KGU1 111043Z 28016G21KT 18/05 A3005 RMK A01 T01780049  RH  043%=      5-min Rain = 0
KGU1 111044Z 29018G26KT 18/05 A3005 RMK A01 T01780048  RH  043%=      5-min Rain = 0
KGU1 111045Z 28015G22KT 18/05 A3005 RMK A01 T01790048  RH  043%=      5-min Rain = 0
KGU1 111046Z 28016G22KT 18/05 A3005 RMK A01 T01780048  RH  043%=      5-min Rain = 0
KGU1 111047Z 28015G20KT 18/05 A3005 RMK A01 T01780047  RH  043%=      5-min Rain = 0
KGU1 111048Z 27018G23KT 18/05 A3005 RMK A01 T01790046  RH  042%=      5-min Rain = 0
KGU1 111049Z 29015G24KT 18/05 A3005 RMK A01 T01800046  RH  042%=      5-min Rain = 0
KGU1 111050Z 29017KT 18/05 A3005 RMK A01 T01790046  RH  042%=      5-min Rain = 0
KGU1 111051Z 28016G21KT 18/05 A3005 RMK A01 T01800045  RH  042%=      5-min Rain = 0
KGU1 111052Z 27019G24KT 18/04 A3005 RMK A01 T01810044  RH  041%=      5-min Rain = 0
KGU1 111053Z 28018KT 18/05 A3006 RMK A01 T01810045  RH  041%=      5-min Rain = 0
KGU1 111054Z 28016KT 18/05 A3006 RMK A01 T01800045  RH  042%=      5-min Rain = 0
KGU1 111055Z 29016KT 18/05 A3006 RMK A01 T01800045  RH  042%=      5-min Rain = 0
KGU1 111056Z 28016G21KT 18/05 A3006 RMK A01 T01790045  RH  042%=      5-min Rain = 0
KGU1 111057Z 28018KT 18/05 A3006 RMK A01 T01800046  RH  042%=      5-min Rain = 0
KGU1 111058Z 29011G16KT 18/05 A3006 RMK A01 T01800046  RH  042%=      5-min Rain = 0
KGU1 111059Z 28016KT 18/05 A3006 RMK A01 T01790045  RH  042%=      5-min Rain = 0
KGU1 111100Z 30010G16KT 18/05 A3006 RMK A01 T01790046  RH  042%=      5-min Rain = 0
KGU1 111101Z 29010KT 18/05 A3006 RMK A01 T01780046  RH  043%=      5-min Rain = 0
KGU1 111102Z 28015G22KT 18/05 A3006 RMK A01 T01780047  RH  043%=      5-min Rain = 0
KGU1 111103Z 30012KT 18/05 A3006 RMK A01 T01770047  RH  043%=      5-min Rain = 0
KGU1 111104Z 31012KT 18/05 A3006 RMK A01 T01770048  RH  043%=      5-min Rain = 0
KGU1 111105Z 29013KT 18/05 A3007 RMK A01 T01770048  RH  044%=      5-min Rain = 0
KGU1 111106Z 29011G16KT 18/05 A3007 RMK A01 T01770048  RH  044%=      5-min Rain = 0
KGU1 111107Z 30013KT 18/05 A3007 RMK A01 T01770048  RH  044%=      5-min Rain = 0
KGU1 111108Z 28010G16KT 18/05 A3006 RMK A01 T01770048  RH  043%=      5-min Rain = 0
KGU1 111109Z 31013G20KT 18/05 A3007 RMK A01 T01770050  RH  044%=      5-min Rain = 0
KGU1 111110Z 29017G22KT 18/05 A3007 RMK A01 T01760051  RH  045%=      5-min Rain = 0
KGU1 111111Z 30018G23KT 18/05 A3006 RMK A01 T01760053  RH  046%=      5-min Rain = 0
KGU1 111112Z 29018G23KT 17/06 A3006 RMK A01 T01740055  RH  047%=      5-min Rain = 0
KGU1 111113Z 27013G18KT 17/06 A3006 RMK A01 T01730056  RH  047%=      5-min Rain = 0
KGU1 111114Z 29017G22KT 17/06 A3006 RMK A01 T01730055  RH  047%=      5-min Rain = 0
KGU1 111115Z 28015G20KT 17/06 A3007 RMK A01 T01730056  RH  047%=      5-min Rain = 0
KGU1 111116Z 30013KT 17/06 A3007 RMK A01 T01720056  RH  047%=      5-min Rain = 0
KGU1 111117Z 30015G20KT 17/06 A3007 RMK A01 T01710055  RH  047%=      5-min Rain = 0
KGU1 111118Z 28011G17KT 17/05 A3007 RMK A01 T01720054  RH  047%=      5-min Rain = 0
KGU1 111119Z 28010KT 17/05 A3007 RMK A01 T01720054  RH  047%=      5-min Rain = 0
KGU1 111120Z 30010KT 17/05 A3007 RMK A01 T01720054  RH  047%=      5-min Rain = 0
KGU1 111121Z 29015KT 17/05 A3007 RMK A01 T01720054  RH  047%=      5-min Rain = 0
KGU1 111122Z 29011G18KT 17/05 A3007 RMK A01 T01730054  RH  047%=      5-min Rain = 0
KGU1 111123Z 29011KT 17/05 A3007 RMK A01 T01720054  RH  047%=      5-min Rain = 0
KGU1 111124Z 28014G19KT 17/05 A3007 RMK A01 T01720054  RH  047%=      5-min Rain = 0
KGU1 111125Z 29016G21KT 17/05 A3007 RMK A01 T01730054  RH  047%=      5-min Rain = 0
KGU1 111126Z 28013KT 17/05 A3007 RMK A01 T01730054  RH  047%=      5-min Rain = 0
KGU1 111127Z 27010KT 17/06 A3007 RMK A01 T01730055  RH  047%=      5-min Rain = 0
KGU1 111128Z 29012KT 17/06 A3007 RMK A01 T01720055  RH  047%=      5-min Rain = 0
KGU1 111129Z 28011KT 17/06 A3007 RMK A01 T01720056  RH  047%=      5-min Rain = 0
KGU1 111130Z 28011KT 17/06 A3007 RMK A01 T01710055  RH  048%=      5-min Rain = 0
KGU1 111131Z 26015KT 17/06 A3007 RMK A01 T01710055  RH  047%=      5-min Rain = 0
KGU1 111132Z 28014KT 17/06 A3007 RMK A01 T01720055  RH  047%=      5-min Rain = 0
KGU1 111133Z 28010KT 17/06 A3007 RMK A01 T01710056  RH  048%=      5-min Rain = 0
KGU1 111134Z 27010KT 17/06 A3007 RMK A01 T01710056  RH  048%=      5-min Rain = 0
KGU1 111135Z 27011KT 17/06 A3007 RMK A01 T01700056  RH  048%=      5-min Rain = 0
KGU1 111136Z 28012G17KT 17/06 A3007 RMK A01 T01700056  RH  048%=      5-min Rain = 0
KGU1 111137Z 29013KT 17/06 A3007 RMK A01 T01710056  RH  048%=      5-min Rain = 0
KGU1 111138Z 28013G19KT 17/06 A3007 RMK A01 T01700057  RH  048%=      5-min Rain = 0
KGU1 111139Z 28011KT 17/06 A3007 RMK A01 T01700058  RH  049%=      5-min Rain = 0
KGU1 111140Z 29011KT 17/06 A3007 RMK A01 T01700058  RH  049%=      5-min Rain = 0
KGU1 111141Z 28015KT 17/06 A3008 RMK A01 T01700058  RH  049%=      5-min Rain = 0
KGU1 111142Z 27012KT 17/06 A3007 RMK A01 T01700058  RH  049%=      5-min Rain = 0
KGU1 111143Z 28013KT 17/06 A3008 RMK A01 T01700059  RH  049%=      5-min Rain = 0
KGU1 111144Z 27017G22KT 17/06 A3007 RMK A01 T01700060  RH  049%=      5-min Rain = 0
KGU1 111145Z 27018G23KT 17/06 A3008 RMK A01 T01700060  RH  049%=      5-min Rain = 0
KGU1 111146Z 28015KT 17/06 A3008 RMK A01 T01700059  RH  049%=      5-min Rain = 0
KGU1 111147Z 28013G18KT 17/06 A3008 RMK A01 T01700059  RH  049%=      5-min Rain = 0
KGU1 111148Z 28012KT 17/06 A3008 RMK A01 T01700060  RH  049%=      5-min Rain = 0
KGU1 111149Z 29013KT 17/06 A3008 RMK A01 T01690059  RH  050%=      5-min Rain = 0
KGU1 111150Z 29015G20KT 17/06 A3008 RMK A01 T01690059  RH  049%=      5-min Rain = 0
KGU1 111151Z 28016KT 17/06 A3008 RMK A01 T01690059  RH  049%=      5-min Rain = 0
KGU1 111152Z 29014KT 17/06 A3008 RMK A01 T01690059  RH  049%=      5-min Rain = 0
KGU1 111153Z 30014G21KT 17/06 A3008 RMK A01 T01700059  RH  049%=      5-min Rain = 0
KGU1 111154Z 30016KT 17/06 A3009 RMK A01 T01700061  RH  050%=      5-min Rain = 0
KGU1 111155Z 29014G20KT 17/06 A3009 RMK A01 T01690061  RH  050%=      5-min Rain = 0
KGU1 111156Z 28016KT 17/06 A3009 RMK A01 T01700059  RH  049%=      5-min Rain = 0
KGU1 111157Z 29013KT 17/06 A3009 RMK A01 T01700061  RH  050%=      5-min Rain = 0
KGU1 111158Z 30015KT 17/06 A3009 RMK A01 T01690062  RH  050%=      5-min Rain = 0
KGU1 111159Z 31013KT 17/06 A3009 RMK A01 T01690063  RH  051%=      5-min Rain = 0
KGU1 111200Z 30012KT 17/06 A3009 RMK A01 T01680064  RH  052%=      5-min Rain = 0
KGU1 111201Z 30016G21KT 17/07 A3009 RMK A01 T01670065  RH  052%=      5-min Rain = 0
KGU1 111202Z 28015G20KT 17/07 A3009 RMK A01 T01670065  RH  052%=      5-min Rain = 0
KGU1 111203Z 31012KT 17/07 A3009 RMK A01 T01670065  RH  052%=      5-min Rain = 0
KGU1 111204Z 31014KT 17/07 A3009 RMK A01 T01660066  RH  053%=      5-min Rain = 0
KGU1 111205Z 30013KT 17/07 A3009 RMK A01 T01660066  RH  053%=      5-min Rain = 0
KGU1 111206Z 31014KT 17/07 A3009 RMK A01 T01660066  RH  053%=      5-min Rain = 0
KGU1 111207Z 29012KT 17/07 A3009 RMK A01 T01650066  RH  053%=      5-min Rain = 0
KGU1 111208Z 29010KT 17/07 A3009 RMK A01 T01660066  RH  053%=      5-min Rain = 0
KGU1 111209Z 30011G16KT 17/07 A3009 RMK A01 T01660066  RH  053%=      5-min Rain = 0
KGU1 111210Z 30016G23KT 17/07 A3009 RMK A01 T01650067  RH  054%=      5-min Rain = 0
KGU1 111211Z 30017G22KT 17/07 A3009 RMK A01 T01650068  RH  054%=      5-min Rain = 0
KGU1 111212Z 31014KT 17/07 A301 RMK A01 T01660068  RH  054%=      5-min Rain = 0
KGU1 111213Z 31012G17KT 17/07 A301 RMK A01 T01660068  RH  054%=      5-min Rain = 0
KGU1 111214Z 31008G14KT 17/07 A301 RMK A01 T01650069  RH  054%=      5-min Rain = 0
KGU1 111215Z 31010G16KT 16/07 A301 RMK A01 T01640069  RH  055%=      5-min Rain = 0
KGU1 111216Z 30010KT 16/07 A3009 RMK A01 T01640069  RH  055%=      5-min Rain = 0
KGU1 111217Z 29011KT 17/07 A301 RMK A01 T01650069  RH  054%=      5-min Rain = 0
KGU1 111218Z 28016KT 17/07 A3009 RMK A01 T01650069  RH  054%=      5-min Rain = 0
KGU1 111219Z 28016KT 17/07 A3009 RMK A01 T01660070  RH  055%=      5-min Rain = 0
KGU1 111220Z 30013KT 17/07 A301 RMK A01 T01660071  RH  055%=      5-min Rain = 0
KGU1 111221Z 29011KT 17/07 A301 RMK A01 T01650072  RH  056%=      5-min Rain = 0
KGU1 111222Z 30013KT 16/07 A301 RMK A01 T01640072  RH  056%=      5-min Rain = 0
KGU1 111223Z 28014G23KT 16/07 A301 RMK A01 T01640072  RH  056%=      5-min Rain = 0
KGU1 111224Z 27020G25KT 17/07 A3009 RMK A01 T01650072  RH  055%=      5-min Rain = 0
KGU1 111225Z 28012G19KT 17/07 A301 RMK A01 T01660072  RH  055%=      5-min Rain = 0
KGU1 111226Z 28019KT 17/07 A301 RMK A01 T01660073  RH  056%=      5-min Rain = 0
KGU1 111227Z 28017G23KT 17/07 A301 RMK A01 T01660072  RH  055%=      5-min Rain = 0
KGU1 111228Z 28019G24KT 17/07 A301 RMK A01 T01660073  RH  055%=      5-min Rain = 0
KGU1 111229Z 28014G20KT 17/07 A301 RMK A01 T01660073  RH  056%=      5-min Rain = 0
KGU1 111230Z 28020KT 17/07 A301 RMK A01 T01660073  RH  056%=      5-min Rain = 0
KGU1 111231Z 28021KT 17/07 A301 RMK A01 T01660072  RH  055%=      5-min Rain = 0
KGU1 111232Z 28017KT 17/07 A301 RMK A01 T01660073  RH  055%=      5-min Rain = 0
KGU1 111233Z 28020G25KT 17/07 A301 RMK A01 T01660072  RH  055%=      5-min Rain = 0
KGU1 111234Z 28019G24KT 17/07 A301 RMK A01 T01670071  RH  054%=      5-min Rain = 0
KGU1 111235Z 28017KT 17/07 A301 RMK A01 T01670070  RH  054%=      5-min Rain = 0
KGU1 111236Z 28017KT 17/07 A301 RMK A01 T01670071  RH  054%=      5-min Rain = 0
KGU1 111237Z 28018G24KT 17/07 A301 RMK A01 T01670070  RH  054%=      5-min Rain = 0
KGU1 111238Z 28020G27KT 17/07 A301 RMK A01 T01680070  RH  054%=      5-min Rain = 0
KGU1 111239Z 29017KT 17/07 A301 RMK A01 T01670070  RH  054%=      5-min Rain = 0
KGU1 111240Z 28016KT 17/07 A301 RMK A01 T01680070  RH  054%=      5-min Rain = 0
KGU1 111241Z 28017G22KT 17/07 A301 RMK A01 T01670070  RH  054%=      5-min Rain = 0
KGU1 111242Z 28020G25KT 17/07 A301 RMK A01 T01680070  RH  054%=      5-min Rain = 0
KGU1 111243Z 28017KT 17/07 A301 RMK A01 T01680070  RH  054%=      5-min Rain = 0
KGU1 111244Z 28019G24KT 17/07 A301 RMK A01 T01680070  RH  054%=      5-min Rain = 0
KGU1 111245Z 28017G23KT 17/07 A301 RMK A01 T01680070  RH  054%=      5-min Rain = 0
KGU1 111246Z 29016KT 17/07 A301 RMK A01 T01680070  RH  054%=      5-min Rain = 0
KGU1 111247Z 28013G18KT 17/07 A301 RMK A01 T01680070  RH  054%=      5-min Rain = 0
KGU1 111248Z 27010KT 17/07 A301 RMK A01 T01680070  RH  054%=      5-min Rain = 0
KGU1 111249Z 28014KT 17/07 A301 RMK A01 T01670070  RH  054%=      5-min Rain = 0
KGU1 111250Z 29015KT 17/07 A301 RMK A01 T01680070  RH  054%=      5-min Rain = 0
KGU1 111251Z 29015KT 17/07 A301 RMK A01 T01680070  RH  053%=      5-min Rain = 0
KGU1 111252Z 28016KT 17/07 A301 RMK A01 T01680069  RH  053%=      5-min Rain = 0
KGU1 111253Z 28019KT 17/07 A301 RMK A01 T01690069  RH  053%=      5-min Rain = 0
KGU1 111254Z 28019KT 17/07 A301 RMK A01 T01690069  RH  053%=      5-min Rain = 0
KGU1 111255Z 28017KT 17/07 A301 RMK A01 T01700069  RH  053%=      5-min Rain = 0
KGU1 111256Z 28016G22KT 17/07 A301 RMK A01 T01700069  RH  053%=      5-min Rain = 0
KGU1 111257Z 28014G22KT 17/07 A301 RMK A01 T01700069  RH  053%=      5-min Rain = 0
KGU1 111258Z 29015G22KT 17/07 A301 RMK A01 T01700069  RH  053%=      5-min Rain = 0
KGU1 111259Z 27012KT 17/07 A301 RMK A01 T01700069  RH  053%=      5-min Rain = 0
KGU1 111300Z 28010KT 17/07 A3011 RMK A01 T01690069  RH  053%=      5-min Rain = 0
KGU1 111301Z 28009KT 17/07 A3011 RMK A01 T01690069  RH  053%=      5-min Rain = 0
KGU1 111302Z 28016G22KT 17/07 A3011 RMK A01 T01690069  RH  053%=      5-min Rain = 0
KGU1 111303Z 28018G24KT 17/07 A3011 RMK A01 T01690069  RH  053%=      5-min Rain = 0
KGU1 111304Z 28013KT 17/07 A3011 RMK A01 T01700069  RH  053%=      5-min Rain = 0
KGU1 111305Z 29012KT 17/07 A3011 RMK A01 T01700069  RH  053%=      5-min Rain = 0
KGU1 111306Z 29011KT 17/07 A3011 RMK A01 T01700069  RH  053%=      5-min Rain = 0
KGU1 111307Z 28014G20KT 17/07 A3011 RMK A01 T01700069  RH  053%=      5-min Rain = 0
KGU1 111308Z 29010KT 17/07 A3011 RMK A01 T01700069  RH  053%=      5-min Rain = 0
KGU1 111309Z 28008KT 17/07 A3011 RMK A01 T01700069  RH  053%=      5-min Rain = 0
KGU1 111310Z 28012G18KT 17/07 A3011 RMK A01 T01700069  RH  053%=      5-min Rain = 0
KGU1 111311Z 29013G19KT 17/07 A3011 RMK A01 T01690069  RH  053%=      5-min Rain = 0
KGU1 111312Z 30013G18KT 17/07 A3011 RMK A01 T01690070  RH  053%=      5-min Rain = 0
KGU1 111313Z 31009KT 17/07 A3012 RMK A01 T01680069  RH  054%=      5-min Rain = 0
KGU1 111314Z 31007KT 17/07 A3012 RMK A01 T01680069  RH  054%=      5-min Rain = 0
KGU1 111315Z 30008KT 17/07 A3012 RMK A01 T01670069  RH  054%=      5-min Rain = 0
KGU1 111316Z 29012KT 17/07 A3012 RMK A01 T01670069  RH  054%=      5-min Rain = 0
KGU1 111317Z 30011KT 17/07 A3012 RMK A01 T01670069  RH  054%=      5-min Rain = 0
KGU1 111318Z 30011KT 17/07 A3012 RMK A01 T01670069  RH  053%=      5-min Rain = 0
KGU1 111319Z 30009KT 17/07 A3012 RMK A01 T01680069  RH  053%=      5-min Rain = 0
KGU1 111320Z 32008KT 17/07 A3012 RMK A01 T01670069  RH  054%=      5-min Rain = 0
KGU1 111321Z 29008G13KT 17/07 A3012 RMK A01 T01670069  RH  054%=      5-min Rain = 0
KGU1 111322Z 34010G16KT 17/07 A3012 RMK A01 T01670069  RH  054%=      5-min Rain = 0
KGU1 111323Z 30006KT 17/07 A3012 RMK A01 T01680069  RH  053%=      5-min Rain = 0
KGU1 111324Z 31007KT 17/07 A3012 RMK A01 T01670069  RH  054%=      5-min Rain = 0
KGU1 111325Z 30007KT 17/07 A3012 RMK A01 T01660068  RH  054%=      5-min Rain = 0
KGU1 111326Z 31007G13KT 17/07 A3012 RMK A01 T01660069  RH  054%=      5-min Rain = 0
KGU1 111327Z 32012KT 17/07 A3012 RMK A01 T01650069  RH  054%=      5-min Rain = 0
KGU1 111328Z 30011KT 17/07 A3013 RMK A01 T01660069  RH  054%=      5-min Rain = 0
KGU1 111329Z 31007KT 17/07 A3013 RMK A01 T01660069  RH  054%=      5-min Rain = 0
KGU1 111330Z 33006G11KT 17/07 A3013 RMK A01 T01660068  RH  054%=      5-min Rain = 0
KGU1 111331Z 29007KT 17/07 A3013 RMK A01 T01660068  RH  054%=      5-min Rain = 0
KGU1 111332Z 31008KT 17/07 A3013 RMK A01 T01670069  RH  054%=      5-min Rain = 0
KGU1 111333Z 31006KT 17/07 A3013 RMK A01 T01670069  RH  054%=      5-min Rain = 0
KGU1 111334Z 31008KT 17/07 A3013 RMK A01 T01660069  RH  054%=      5-min Rain = 0
KGU1 111335Z 33010KT 17/07 A3013 RMK A01 T01660069  RH  054%=      5-min Rain = 0
KGU1 111336Z 31014KT 17/07 A3013 RMK A01 T01660069  RH  054%=      5-min Rain = 0
KGU1 111337Z 31013G19KT 17/07 A3013 RMK A01 T01650068  RH  054%=      5-min Rain = 0
KGU1 111338Z 31012G17KT 17/07 A3013 RMK A01 T01660069  RH  054%=      5-min Rain = 0
KGU1 111339Z 32009KT 17/07 A3013 RMK A01 T01660069  RH  054%=      5-min Rain = 0
KGU1 111340Z 31011KT 17/07 A3013 RMK A01 T01650069  RH  055%=      5-min Rain = 0
KGU1 111341Z 30008KT 16/07 A3013 RMK A01 T01640069  RH  055%=      5-min Rain = 0
KGU1 111342Z 32012KT 16/07 A3013 RMK A01 T01640069  RH  055%=      5-min Rain = 0
KGU1 111343Z 32009KT 16/07 A3013 RMK A01 T01640068  RH  054%=      5-min Rain = 0
KGU1 111344Z 30008KT 16/07 A3013 RMK A01 T01640068  RH  054%=      5-min Rain = 0
KGU1 111345Z 33012G18KT 16/07 A3014 RMK A01 T01640068  RH  054%=      5-min Rain = 0
KGU1 111346Z 30011G16KT 17/07 A3014 RMK A01 T01650068  RH  054%=      5-min Rain = 0
KGU1 111347Z 31009KT 17/07 A3014 RMK A01 T01650068  RH  054%=      5-min Rain = 0
KGU1 111348Z 32012KT 17/07 A3014 RMK A01 T01650068  RH  054%=      5-min Rain = 0
KGU1 111349Z 31009KT 17/07 A3014 RMK A01 T01650068  RH  054%=      5-min Rain = 0
KGU1 111350Z 32011KT 17/07 A3014 RMK A01 T01650069  RH  054%=      5-min Rain = 0
KGU1 111351Z 30006KT 17/07 A3014 RMK A01 T01650068  RH  054%=      5-min Rain = 0
KGU1 111352Z 29004G9KT 17/07 A3014 RMK A01 T01650069  RH  055%=      5-min Rain = 0
KGU1 111353Z 31007KT 16/07 A3014 RMK A01 T01640069  RH  055%=      5-min Rain = 0
KGU1 111354Z 31007KT 16/07 A3014 RMK A01 T01630069  RH  055%=      5-min Rain = 0
KGU1 111355Z 30007G13KT 16/07 A3014 RMK A01 T01630069  RH  055%=      5-min Rain = 0
KGU1 111356Z 31009KT 16/07 A3014 RMK A01 T01630069  RH  055%=      5-min Rain = 0
KGU1 111357Z 30009KT 16/07 A3014 RMK A01 T01630068  RH  055%=      5-min Rain = 0
KGU1 111358Z 30007KT 16/07 A3014 RMK A01 T01630069  RH  055%=      5-min Rain = 0
KGU1 111359Z 31006KT 16/07 A3014 RMK A01 T01630068  RH  055%=      5-min Rain = 0
KGU1 111400Z 31004KT 16/07 A3015 RMK A01 T01630068  RH  055%=      5-min Rain = 0
KGU1 111401Z 30007KT 16/07 A3015 RMK A01 T01630068  RH  055%=      5-min Rain = 0
KGU1 111402Z 31008KT 16/07 A3015 RMK A01 T01630068  RH  055%=      5-min Rain = 0
KGU1 111403Z 32008KT 16/07 A3015 RMK A01 T01630067  RH  054%=      5-min Rain = 0
KGU1 111404Z 31007KT 16/07 A3015 RMK A01 T01640067  RH  054%=      5-min Rain = 0
KGU1 111405Z 30006KT 16/07 A3015 RMK A01 T01640067  RH  054%=      5-min Rain = 0
KGU1 111406Z 32004KT 16/07 A3015 RMK A01 T01640067  RH  054%=      5-min Rain = 0
KGU1 111407Z 31004KT 16/07 A3015 RMK A01 T01630067  RH  054%=      5-min Rain = 0
KGU1 111408Z 31002KT 16/07 A3015 RMK A01 T01640067  RH  054%=      5-min Rain = 0
KGU1 111409Z 30000KT 16/07 A3015 RMK A01 T01640067  RH  054%=      5-min Rain = 0
KGU1 111410Z 06001KT 16/07 A3016 RMK A01 T01630067  RH  054%=      5-min Rain = 0
KGU1 111411Z 01001KT 16/07 A3016 RMK A01 T01630066  RH  054%=      5-min Rain = 0
KGU1 111412Z 33003KT 16/06 A3016 RMK A01 T01630064  RH  053%=      5-min Rain = 0
KGU1 111413Z 31004KT 16/06 A3016 RMK A01 T01640064  RH  053%=      5-min Rain = 0
KGU1 111414Z 31004KT 17/06 A3016 RMK A01 T01650064  RH  052%=      5-min Rain = 0
KGU1 111415Z 33008G13KT 17/06 A3016 RMK A01 T01660063  RH  052%=      5-min Rain = 0
KGU1 111416Z 34007KT 17/06 A3016 RMK A01 T01670062  RH  051%=      5-min Rain = 0
KGU1 111417Z 34007KT 17/06 A3016 RMK A01 T01670063  RH  051%=      5-min Rain = 0
KGU1 111418Z 34007KT 17/06 A3016 RMK A01 T01670063  RH  051%=      5-min Rain = 0
KGU1 111419Z 36007KT 17/06 A3016 RMK A01 T01670062  RH  051%=      5-min Rain = 0
KGU1 111420Z 01004KT 17/07 A3016 RMK A01 T01660065  RH  052%=      5-min Rain = 0
KGU1 111421Z 01007KT 17/06 A3016 RMK A01 T01660064  RH  052%=      5-min Rain = 0
KGU1 111422Z 02005KT 17/06 A3016 RMK A01 T01650064  RH  052%=      5-min Rain = 0
KGU1 111423Z 02004KT 17/06 A3016 RMK A01 T01650064  RH  052%=      5-min Rain = 0
KGU1 111424Z 03003KT 17/06 A3016 RMK A01 T01650064  RH  052%=      5-min Rain = 0
KGU1 111425Z 01006KT 17/06 A3016 RMK A01 T01650063  RH  052%=      5-min Rain = 0
KGU1 111426Z 35004KT 17/06 A3016 RMK A01 T01660061  RH  051%=      5-min Rain = 0
KGU1 111427Z 35007KT 17/06 A3016 RMK A01 T01670059  RH  050%=      5-min Rain = 0
KGU1 111428Z 34008G13KT 17/06 A3016 RMK A01 T01680058  RH  049%=      5-min Rain = 0
KGU1 111429Z 31007KT 17/06 A3016 RMK A01 T01690057  RH  049%=      5-min Rain = 0
KGU1 111430Z 30006KT 17/06 A3016 RMK A01 T01690058  RH  049%=      5-min Rain = 0
KGU1 111431Z 31003KT 17/06 A3016 RMK A01 T01700057  RH  049%=      5-min Rain = 0
KGU1 111432Z 09001KT 17/06 A3016 RMK A01 T01690059  RH  049%=      5-min Rain = 0
KGU1 111433Z 35006KT 17/06 A3016 RMK A01 T01690059  RH  049%=      5-min Rain = 0
KGU1 111434Z 34006KT 17/06 A3016 RMK A01 T01700057  RH  048%=      5-min Rain = 0
KGU1 111435Z 34002KT 17/06 A3016 RMK A01 T01700057  RH  048%=      5-min Rain = 0
KGU1 111436Z 34003KT 17/06 A3016 RMK A01 T01700057  RH  048%=      5-min Rain = 0
KGU1 111437Z 00007G12KT 17/06 A3016 RMK A01 T01700057  RH  048%=      5-min Rain = 0
KGU1 111438Z 35008KT 17/06 A3017 RMK A01 T01700058  RH  049%=      5-min Rain = 0
KGU1 111439Z 00005KT 17/06 A3016 RMK A01 T01700059  RH  049%=      5-min Rain = 0
KGU1 111440Z 00005KT 17/06 A3017 RMK A01 T01690060  RH  050%=      5-min Rain = 0
KGU1 111441Z 35008KT 17/06 A3017 RMK A01 T01680060  RH  050%=      5-min Rain = 0
KGU1 111442Z 35006KT 17/06 A3017 RMK A01 T01670059  RH  050%=      5-min Rain = 0
KGU1 111443Z 01004KT 17/06 A3017 RMK A01 T01670061  RH  051%=      5-min Rain = 0
KGU1 111444Z 36004KT 17/06 A3017 RMK A01 T01660062  RH  051%=      5-min Rain = 0
KGU1 111445Z 01004KT 17/06 A3017 RMK A01 T01660062  RH  052%=      5-min Rain = 0
KGU1 111446Z 36004KT 17/06 A3017 RMK A01 T01650062  RH  052%=      5-min Rain = 0
KGU1 111447Z 36009KT 17/06 A3017 RMK A01 T01650061  RH  052%=      5-min Rain = 0
KGU1 111448Z 34008KT 17/06 A3017 RMK A01 T01660059  RH  050%=      5-min Rain = 0
KGU1 111449Z 34009KT 17/06 A3017 RMK A01 T01670060  RH  050%=      5-min Rain = 0
KGU1 111450Z 36009KT 17/06 A3017 RMK A01 T01670060  RH  050%=      5-min Rain = 0
KGU1 111451Z 34009KT 17/06 A3017 RMK A01 T01680059  RH  050%=      5-min Rain = 0
KGU1 111452Z 34008KT 17/06 A3017 RMK A01 T01680060  RH  050%=      5-min Rain = 0
KGU1 111453Z 35006KT 17/06 A3017 RMK A01 T01680062  RH  051%=      5-min Rain = 0
KGU1 111454Z 01004KT 17/06 A3017 RMK A01 T01670063  RH  051%=      5-min Rain = 0
KGU1 111455Z 02004KT 17/06 A3017 RMK A01 T01660064  RH  052%=      5-min Rain = 0
KGU1 111456Z 02005KT 17/07 A3018 RMK A01 T01650065  RH  053%=      5-min Rain = 0
KGU1 111457Z 05008KT 16/07 A3018 RMK A01 T01640066  RH  054%=      5-min Rain = 0
KGU1 111458Z 10008KT 16/07 A3018 RMK A01 T01620066  RH  054%=      5-min Rain = 0
KGU1 111459Z 12012KT 16/07 A3018 RMK A01 T01610067  RH  055%=      5-min Rain = 0
KGU1 111500Z 12010KT 16/07 A3018 RMK A01 T01600067  RH  055%=      5-min Rain = 0
KGU1 111501Z 11010KT 16/07 A3018 RMK A01 T01590067  RH  056%=      5-min Rain = 0
KGU1 111502Z 09009KT 16/07 A3018 RMK A01 T01560067  RH  057%=      5-min Rain = 0
KGU1 111503Z 09010KT 15/07 A3018 RMK A01 T01530067  RH  058%=      5-min Rain = 0
KGU1 111504Z 08009G14KT 15/07 A3018 RMK A01 T01510066  RH  058%=      5-min Rain = 0
KGU1 111505Z 07011KT 15/07 A3018 RMK A01 T01490065  RH  058%=      5-min Rain = 0
KGU1 111506Z 07009KT 15/07 A3018 RMK A01 T01480065  RH  059%=      5-min Rain = 0
KGU1 111507Z 05008KT 15/07 A3019 RMK A01 T01480065  RH  059%=      5-min Rain = 0
KGU1 111508Z 05009KT 15/07 A3019 RMK A01 T01480066  RH  060%=      5-min Rain = 0
KGU1 111509Z 06008KT 15/07 A3019 RMK A01 T01470065  RH  059%=      5-min Rain = 0
KGU1 111510Z 07007KT 15/06 A3019 RMK A01 T01470064  RH  059%=      5-min Rain = 0
KGU1 111511Z 08006KT 15/06 A3019 RMK A01 T01460064  RH  059%=      5-min Rain = 0
KGU1 111512Z 08007KT 15/06 A3019 RMK A01 T01460064  RH  059%=      5-min Rain = 0
KGU1 111513Z 08006KT 15/06 A3019 RMK A01 T01460064  RH  059%=      5-min Rain = 0
KGU1 111514Z 08005KT 15/06 A3019 RMK A01 T01450063  RH  059%=      5-min Rain = 0
KGU1 111515Z 09006KT 15/06 A3019 RMK A01 T01450064  RH  060%=      5-min Rain = 0
KGU1 111516Z 09005KT 14/06 A3019 RMK A01 T01440064  RH  060%=      5-min Rain = 0
KGU1 111517Z 09005KT 15/07 A3018 RMK A01 T01450065  RH  060%=      5-min Rain = 0
KGU1 111518Z 10005KT 15/07 A3018 RMK A01 T01450065  RH  060%=      5-min Rain = 0
KGU1 111519Z 10006KT 15/07 A3019 RMK A01 T01450065  RH  060%=      5-min Rain = 0
KGU1 111520Z 10005KT 15/07 A3019 RMK A01 T01450066  RH  060%=      5-min Rain = 0
KGU1 111521Z 10006KT 15/07 A3019 RMK A01 T01450066  RH  061%=      5-min Rain = 0
KGU1 111522Z 09006KT 14/07 A3019 RMK A01 T01440066  RH  061%=      5-min Rain = 0
KGU1 111523Z 09007KT 14/07 A302 RMK A01 T01430065  RH  061%=      5-min Rain = 0
KGU1 111524Z 08008KT 14/06 A302 RMK A01 T01410063  RH  061%=      5-min Rain = 0
KGU1 111525Z 07007KT 14/06 A302 RMK A01 T01390058  RH  060%=      5-min Rain = 0
KGU1 111526Z 09005KT 14/06 A302 RMK A01 T01380059  RH  060%=      5-min Rain = 0
KGU1 111527Z 10005KT 14/06 A302 RMK A01 T01380059  RH  061%=      5-min Rain = 0
KGU1 111528Z 11005KT 14/06 A302 RMK A01 T01380061  RH  061%=      5-min Rain = 0
KGU1 111529Z 12005KT 14/06 A302 RMK A01 T01380063  RH  062%=      5-min Rain = 0
KGU1 111530Z 11005KT 14/06 A302 RMK A01 T01380063  RH  062%=      5-min Rain = 0
KGU1 111531Z 10003KT 14/06 A302 RMK A01 T01380061  RH  061%=      5-min Rain = 0
KGU1 111532Z 10001KT 14/06 A302 RMK A01 T01380060  RH  061%=      5-min Rain = 0
KGU1 111533Z 14001KT 14/06 A302 RMK A01 T01390060  RH  061%=      5-min Rain = 0
KGU1 111534Z 15002KT 14/06 A302 RMK A01 T01390059  RH  060%=      5-min Rain = 0
KGU1 111535Z 14007KT 14/06 A302 RMK A01 T01390062  RH  061%=      5-min Rain = 0
KGU1 111536Z 14008KT 14/07 A3021 RMK A01 T01380065  RH  063%=      5-min Rain = 0
KGU1 111537Z 14008KT 14/07 A3021 RMK A01 T01370068  RH  064%=      5-min Rain = 0
KGU1 111538Z 14012KT 14/07 A3021 RMK A01 T01350074  RH  068%=      5-min Rain = 0
KGU1 111539Z 13008KT 13/08 A3021 RMK A01 T01290075  RH  071%=      5-min Rain = 0
KGU1 111540Z 11007KT 13/08 A3021 RMK A01 T01260075  RH  073%=      5-min Rain = 0
KGU1 111541Z 10007KT 13/08 A3021 RMK A01 T01260075  RH  073%=      5-min Rain = 0
KGU1 111542Z 10006KT 13/08 A3021 RMK A01 T01260075  RH  073%=      5-min Rain = 0
KGU1 111543Z 11008KT 13/07 A3021 RMK A01 T01260072  RH  071%=      5-min Rain = 0
KGU1 111544Z 12009KT 13/07 A3021 RMK A01 T01250068  RH  070%=      5-min Rain = 0
KGU1 111545Z 12009KT 13/07 A3021 RMK A01 T01250066  RH  069%=      5-min Rain = 0
KGU1 111546Z 12010KT 12/07 A3021 RMK A01 T01220065  RH  070%=      5-min Rain = 0
KGU1 111547Z 14009KT 12/07 A3021 RMK A01 T01190065  RH  071%=      5-min Rain = 0
KGU1 111548Z 14007KT 12/06 A3021 RMK A01 T01170063  RH  071%=      5-min Rain = 0
KGU1 111549Z 12005KT 12/06 A3021 RMK A01 T01170063  RH  071%=      5-min Rain = 0
KGU1 111550Z 12005KT 12/06 A3021 RMK A01 T01170061  RH  070%=      5-min Rain = 0
KGU1 111551Z 12005KT 12/06 A3021 RMK A01 T01180062  RH  070%=      5-min Rain = 0
KGU1 111552Z 12007KT 12/06 A3022 RMK A01 T01190062  RH  070%=      5-min Rain = 0
KGU1 111553Z 12008KT 12/06 A3022 RMK A01 T01190061  RH  069%=      5-min Rain = 0
KGU1 111554Z 11007KT 12/06 A3022 RMK A01 T01180060  RH  069%=      5-min Rain = 0
KGU1 111555Z 10007KT 12/06 A3022 RMK A01 T01170060  RH  069%=      5-min Rain = 0
KGU1 111556Z 09006KT 12/06 A3022 RMK A01 T01180059  RH  069%=      5-min Rain = 0
KGU1 111557Z 10007KT 12/06 A3022 RMK A01 T01190060  RH  069%=      5-min Rain = 0
KGU1 111558Z 10008KT 12/06 A3022 RMK A01 T01200059  RH  068%=      5-min Rain = 0
KGU1 111559Z 09006KT 12/05 A3022 RMK A01 T01160054  RH  067%=      5-min Rain = 0
KGU1 111600Z 09003KT 11/05 A3022 RMK A01 T01120053  RH  068%=      5-min Rain = 0
KGU1 111601Z 12007KT 11/05 A3023 RMK A01 T01100054  RH  070%=      5-min Rain = 0
KGU1 111602Z 13009KT 11/06 A3023 RMK A01 T01110055  RH  070%=      5-min Rain = 0
KGU1 111603Z 13010KT 11/05 A3023 RMK A01 T01120054  RH  069%=      5-min Rain = 0
KGU1 111604Z 12008KT 11/05 A3023 RMK A01 T01130053  RH  068%=      5-min Rain = 0
KGU1 111605Z 11009KT 11/05 A3023 RMK A01 T01130050  RH  066%=      5-min Rain = 0
KGU1 111606Z 10009KT 11/05 A3023 RMK A01 T01110048  RH  066%=      5-min Rain = 0
KGU1 111607Z 10010KT 11/05 A3023 RMK A01 T01100047  RH  067%=      5-min Rain = 0
KGU1 111608Z 11010KT 11/05 A3023 RMK A01 T01110047  RH  066%=      5-min Rain = 0
KGU1 111609Z 11013KT 11/05 A3023 RMK A01 T01110045  RH  065%=      5-min Rain = 0
KGU1 111610Z 11011KT 11/04 A3023 RMK A01 T01110044  RH  065%=      5-min Rain = 0
KGU1 111611Z 11012KT 11/04 A3023 RMK A01 T01110042  RH  064%=      5-min Rain = 0
KGU1 111612Z 10012KT 11/04 A3023 RMK A01 T01080040  RH  064%=      5-min Rain = 0
KGU1 111613Z 10010KT 10/04 A3024 RMK A01 T01040038  RH  065%=      5-min Rain = 0
KGU1 111614Z 11011KT 10/04 A3024 RMK A01 T01000037  RH  066%=      5-min Rain = 0
KGU1 111615Z 11011KT 10/04 A3024 RMK A01 T00980037  RH  067%=      5-min Rain = 0
KGU1 111616Z 11009KT 10/04 A3024 RMK A01 T00980036  RH  067%=      5-min Rain = 0
KGU1 111617Z 11009KT 10/04 A3024 RMK A01 T00990036  RH  066%=      5-min Rain = 0
KGU1 111618Z 11008KT 10/04 A3024 RMK A01 T00980035  RH  066%=      5-min Rain = 0
KGU1 111619Z 10007KT 10/04 A3024 RMK A01 T01000037  RH  066%=      5-min Rain = 0
KGU1 111620Z 10011KT 10/04 A3024 RMK A01 T01040036  RH  064%=      5-min Rain = 0
KGU1 111621Z 10009KT 10/03 A3024 RMK A01 T01030033  RH  063%=      5-min Rain = 0
KGU1 111622Z 10008KT 10/03 A3024 RMK A01 T01020033  RH  063%=      5-min Rain = 0
KGU1 111623Z 09009KT 10/03 A3024 RMK A01 T01000033  RH  064%=      5-min Rain = 0
KGU1 111624Z 09008KT 10/03 A3025 RMK A01 T00990034  RH  065%=      5-min Rain = 0
KGU1 111625Z 08006KT 10/04 A3024 RMK A01 T01000035  RH  065%=      5-min Rain = 0
KGU1 111626Z 07006KT 10/03 A3024 RMK A01 T00990030  RH  063%=      5-min Rain = 0
KGU1 111627Z 08007KT 10/03 A3024 RMK A01 T01000034  RH  065%=      5-min Rain = 0
KGU1 111628Z 08009KT 10/03 A3024 RMK A01 T01010031  RH  063%=      5-min Rain = 0
KGU1 111629Z 08011KT 10/03 A3024 RMK A01 T01000028  RH  062%=      5-min Rain = 0
KGU1 111630Z 09010KT 10/03 A3024 RMK A01 T00980029  RH  063%=      5-min Rain = 0
KGU1 111631Z 09010KT 10/03 A3025 RMK A01 T01000030  RH  063%=      5-min Rain = 0
KGU1 111632Z 08010KT 10/03 A3025 RMK A01 T01010030  RH  062%=      5-min Rain = 0
KGU1 111633Z 06009KT 10/03 A3025 RMK A01 T01010030  RH  062%=      5-min Rain = 0
KGU1 111634Z 08010KT 10/03 A3025 RMK A01 T01020031  RH  063%=      5-min Rain = 0
KGU1 111635Z 08008KT 10/03 A3025 RMK A01 T01000030  RH  063%=      5-min Rain = 0
KGU1 111636Z 08007KT 10/03 A3025 RMK A01 T00970030  RH  064%=      5-min Rain = 0
KGU1 111637Z 09007KT 10/03 A3025 RMK A01 T00970032  RH  065%=      5-min Rain = 0
KGU1 111638Z 10007KT 10/03 A3025 RMK A01 T00970031  RH  065%=      5-min Rain = 0
KGU1 111639Z 08007KT 10/03 A3025 RMK A01 T00970033  RH  065%=      5-min Rain = 0
KGU1 111640Z 08007KT 10/03 A3025 RMK A01 T00990032  RH  064%=      5-min Rain = 0
KGU1 111641Z 09007KT 10/03 A3025 RMK A01 T00990031  RH  064%=      5-min Rain = 0
KGU1 111642Z 11010KT 10/03 A3025 RMK A01 T01020032  RH  063%=      5-min Rain = 0
KGU1 111643Z 12010KT 10/03 A3025 RMK A01 T01010031  RH  063%=      5-min Rain = 0
KGU1 111644Z 12008KT 10/03 A3025 RMK A01 T01010033  RH  064%=      5-min Rain = 0
KGU1 111645Z 12006KT 10/03 A3026 RMK A01 T01020032  RH  063%=      5-min Rain = 0
KGU1 111646Z 11007KT 10/03 A3025 RMK A01 T01040034  RH  063%=      5-min Rain = 0
KGU1 111647Z 11008KT 11/03 A3025 RMK A01 T01050033  RH  062%=      5-min Rain = 0
KGU1 111648Z 10007KT 10/03 A3025 RMK A01 T01030030  RH  062%=      5-min Rain = 0
KGU1 111649Z 10006KT 10/03 A3025 RMK A01 T01020032  RH  063%=      5-min Rain = 0
KGU1 111650Z 08009KT 10/03 A3025 RMK A01 T01030031  RH  062%=      5-min Rain = 0
KGU1 111651Z 08009KT 11/03 A3025 RMK A01 T01050030  RH  061%=      5-min Rain = 0
KGU1 111652Z 07010KT 10/03 A3025 RMK A01 T01030028  RH  060%=      5-min Rain = 0
KGU1 111653Z 08012KT 10/03 A3025 RMK A01 T01000026  RH  061%=      5-min Rain = 0
KGU1 111654Z 08010KT 10/03 A3026 RMK A01 T00980026  RH  062%=      5-min Rain = 0
KGU1 111655Z 07010KT 10/03 A3026 RMK A01 T00980027  RH  062%=      5-min Rain = 0
KGU1 111656Z 09010KT 10/03 A3026 RMK A01 T00970025  RH  062%=      5-min Rain = 0
KGU1 111657Z 11010KT 10/03 A3026 RMK A01 T00970026  RH  062%=      5-min Rain = 0
KGU1 111658Z 09011KT 10/02 A3026 RMK A01 T00950024  RH  062%=      5-min Rain = 0
KGU1 111659Z 09010KT 09/02 A3026 RMK A01 T00930024  RH  063%=      5-min Rain = 0
KGU1 111700Z 08009KT 09/02 A3026 RMK A01 T00900024  RH  064%=      5-min Rain = 0
KGU1 111701Z 08011KT 09/02 A3026 RMK A01 T00890023  RH  064%=      5-min Rain = 0
KGU1 111702Z 08008KT 09/02 A3026 RMK A01 T00870023  RH  065%=      5-min Rain = 0
KGU1 111703Z 08007KT 09/02 A3026 RMK A01 T00870024  RH  066%=      5-min Rain = 0
KGU1 111704Z 07009KT 09/03 A3026 RMK A01 T00890025  RH  065%=      5-min Rain = 0
KGU1 111705Z 07008KT 09/03 A3026 RMK A01 T00910025  RH  064%=      5-min Rain = 0
KGU1 111706Z 08010KT 09/03 A3026 RMK A01 T00930025  RH  064%=      5-min Rain = 0
KGU1 111707Z 08010KT 09/02 A3027 RMK A01 T00920024  RH  063%=      5-min Rain = 0
KGU1 111708Z 07006KT 09/02 A3027 RMK A01 T00900024  RH  064%=      5-min Rain = 0
KGU1 111709Z 07010KT 09/03 A3027 RMK A01 T00930025  RH  064%=      5-min Rain = 0
KGU1 111710Z 07011KT 09/02 A3027 RMK A01 T00930023  RH  062%=      5-min Rain = 0
KGU1 111711Z 08012KT 09/02 A3027 RMK A01 T00900021  RH  063%=      5-min Rain = 0
KGU1 111712Z 08009KT 09/02 A3027 RMK A01 T00880021  RH  064%=      5-min Rain = 0
KGU1 111713Z 09011KT 09/02 A3027 RMK A01 T00880021  RH  064%=      5-min Rain = 0
KGU1 111714Z 07010KT 09/02 A3028 RMK A01 T00870021  RH  064%=      5-min Rain = 0
KGU1 111715Z 08012KT 09/02 A3028 RMK A01 T00860020  RH  064%=      5-min Rain = 0
KGU1 111716Z 08010KT 08/02 A3028 RMK A01 T00830019  RH  065%=      5-min Rain = 0
KGU1 111717Z 07010KT 08/02 A3028 RMK A01 T00810020  RH  066%=      5-min Rain = 0
KGU1 111718Z 08009KT 08/02 A3028 RMK A01 T00810021  RH  067%=      5-min Rain = 0
KGU1 111719Z 08010KT 08/02 A3028 RMK A01 T00830021  RH  066%=      5-min Rain = 0
KGU1 111720Z 08010KT 08/02 A3028 RMK A01 T00810019  RH  066%=      5-min Rain = 0
KGU1 111721Z 09008KT 08/02 A3028 RMK A01 T00800019  RH  067%=      5-min Rain = 0
KGU1 111722Z 07011KT 08/02 A3028 RMK A01 T00800020  RH  067%=      5-min Rain = 0
KGU1 111723Z 08010KT 08/02 A3028 RMK A01 T00790020  RH  067%=      5-min Rain = 0
KGU1 111724Z 08010KT 08/02 A3028 RMK A01 T00800021  RH  067%=      5-min Rain = 0
KGU1 111725Z 09010KT 08/02 A3028 RMK A01 T00800020  RH  067%=      5-min Rain = 0
KGU1 111726Z 09010KT 08/02 A3028 RMK A01 T00800019  RH  066%=      5-min Rain = 0
KGU1 111727Z 09009KT 08/02 A3028 RMK A01 T00800020  RH  067%=      5-min Rain = 0
KGU1 111728Z 09009KT 08/02 A3028 RMK A01 T00800020  RH  067%=      5-min Rain = 0
KGU1 111729Z 08008KT 08/02 A3028 RMK A01 T00820022  RH  067%=      5-min Rain = 0
KGU1 111730Z 09010KT 09/02 A3028 RMK A01 T00850022  RH  065%=      5-min Rain = 0
KGU1 111731Z 08010KT 09/02 A3028 RMK A01 T00870021  RH  064%=      5-min Rain = 0
KGU1 111732Z 09011KT 09/02 A3028 RMK A01 T00850019  RH  064%=      5-min Rain = 0
KGU1 111733Z 11012KT 08/02 A3028 RMK A01 T00810018  RH  065%=      5-min Rain = 0
KGU1 111734Z 09011KT 08/02 A3028 RMK A01 T00790018  RH  066%=      5-min Rain = 0
KGU1 111735Z 08013KT 08/02 A3028 RMK A01 T00770017  RH  067%=      5-min Rain = 0
KGU1 111736Z 08009KT 07/02 A3028 RMK A01 T00740016  RH  067%=      5-min Rain = 0
KGU1 111737Z 09015KT 07/02 A3028 RMK A01 T00720015  RH  068%=      5-min Rain = 0
KGU1 111738Z 07011KT 07/02 A3028 RMK A01 T00690015  RH  069%=      5-min Rain = 0
KGU1 111739Z 09009KT 07/02 A3028 RMK A01 T00690017  RH  070%=      5-min Rain = 0
KGU1 111740Z 11010KT 07/02 A3028 RMK A01 T00710018  RH  070%=      5-min Rain = 0
KGU1 111741Z 11009KT 07/02 A3028 RMK A01 T00720017  RH  069%=      5-min Rain = 0
KGU1 111742Z 11011KT 07/02 A3028 RMK A01 T00730017  RH  069%=      5-min Rain = 0
KGU1 111743Z 11010KT 07/02 A3028 RMK A01 T00710015  RH  068%=      5-min Rain = 0
KGU1 111744Z 09010KT 07/02 A3028 RMK A01 T00710016  RH  069%=      5-min Rain = 0
KGU1 111745Z 09008KT 07/02 A3028 RMK A01 T00710016  RH  069%=      5-min Rain = 0
KGU1 111746Z 12006KT 07/02 A3028 RMK A01 T00700016  RH  069%=      5-min Rain = 0
KGU1 111747Z 11007KT 07/02 A3028 RMK A01 T00710016  RH  069%=      5-min Rain = 0
KGU1 111748Z 11011KT 07/02 A3028 RMK A01 T00720015  RH  068%=      5-min Rain = 0
KGU1 111749Z 11009KT 07/01 A3028 RMK A01 T00700014  RH  069%=      5-min Rain = 0
KGU1 111750Z 13008KT 07/02 A3028 RMK A01 T00690015  RH  069%=      5-min Rain = 0
KGU1 111751Z 11010KT 07/02 A3028 RMK A01 T00710016  RH  069%=      5-min Rain = 0
KGU1 111752Z 12008KT 07/01 A3028 RMK A01 T00710014  RH  068%=      5-min Rain = 0
KGU1 111753Z 12013KT 07/02 A3028 RMK A01 T00720016  RH  068%=      5-min Rain = 0
KGU1 111754Z 13009KT 07/01 A3028 RMK A01 T00710014  RH  068%=      5-min Rain = 0
KGU1 111755Z 12011G16KT 07/02 A3028 RMK A01 T00710015  RH  068%=      5-min Rain = 0
KGU1 111756Z 12012KT 07/02 A3028 RMK A01 T00730015  RH  068%=      5-min Rain = 0
KGU1 111757Z 13013KT 07/02 A3027 RMK A01 T00740015  RH  067%=      5-min Rain = 0
KGU1 111758Z 13012KT 07/01 A3027 RMK A01 T00730014  RH  067%=      5-min Rain = 0
KGU1 111759Z 13009KT 07/02 A3027 RMK A01 T00730015  RH  067%=      5-min Rain = 0
KGU1 111800Z 14008KT 07/02 A3027 RMK A01 T00730015  RH  068%=      5-min Rain = 0
KGU1 111801Z 09004KT 08/02 A3027 RMK A01 T00750017  RH  068%=      5-min Rain = 0
KGU1 111802Z 03004KT 08/02 A3027 RMK A01 T00780019  RH  067%=      5-min Rain = 0
KGU1 111803Z 01008KT 08/02 A3028 RMK A01 T00820021  RH  066%=      5-min Rain = 0
KGU1 111804Z 34006KT 08/02 A3028 RMK A01 T00810018  RH  066%=      5-min Rain = 0
KGU1 111805Z 33003KT 08/02 A3028 RMK A01 T00780018  RH  067%=      5-min Rain = 0
KGU1 111806Z 33004KT 08/02 A3028 RMK A01 T00780019  RH  067%=      5-min Rain = 0
KGU1 111807Z 32006KT 08/02 A3028 RMK A01 T00790020  RH  067%=      5-min Rain = 0
KGU1 111808Z 32004KT 08/02 A3028 RMK A01 T00790019  RH  067%=      5-min Rain = 0
KGU1 111809Z 35001KT 08/02 A3028 RMK A01 T00780019  RH  067%=      5-min Rain = 0
KGU1 111810Z 08005G10KT 08/02 A3029 RMK A01 T00790019  RH  067%=      5-min Rain = 0
KGU1 111811Z 10006KT 08/02 A3029 RMK A01 T00790017  RH  066%=      5-min Rain = 0
KGU1 111812Z 09015KT 08/01 A3028 RMK A01 T00770013  RH  065%=      5-min Rain = 0
KGU1 111813Z 08015KT 08/01 A3028 RMK A01 T00760012  RH  065%=      5-min Rain = 0
KGU1 111814Z 08016G22KT 07/01 A3028 RMK A01 T00740011  RH  065%=      5-min Rain = 0
KGU1 111815Z 07015KT 07/01 A3028 RMK A01 T00740011  RH  065%=      5-min Rain = 0
KGU1 111816Z 07012G17KT 07/01 A3029 RMK A01 T00740012  RH  065%=      5-min Rain = 0
KGU1 111817Z 08012KT 08/01 A3028 RMK A01 T00750012  RH  065%=      5-min Rain = 0
KGU1 111818Z 08015KT 08/01 A3028 RMK A01 T00750010  RH  064%=      5-min Rain = 0
KGU1 111819Z 08013KT 07/01 A3028 RMK A01 T00740010  RH  065%=      5-min Rain = 0
KGU1 111820Z 09014KT 07/01 A3028 RMK A01 T00740011  RH  065%=      5-min Rain = 0
KGU1 111821Z 08016KT 07/01 A3028 RMK A01 T00730009  RH  065%=      5-min Rain = 0
KGU1 111822Z 08015G20KT 07/01 A3029 RMK A01 T00700008  RH  065%=      5-min Rain = 0
KGU1 111823Z 09013G18KT 07/01 A3029 RMK A01 T00690008  RH  066%=      5-min Rain = 0
KGU1 111824Z 09014KT 07/01 A3029 RMK A01 T00690008  RH  066%=      5-min Rain = 0
KGU1 111825Z 08015KT 07/01 A3029 RMK A01 T00690007  RH  066%=      5-min Rain = 0
KGU1 111826Z 08017KT 07/01 A3029 RMK A01 T00680006  RH  066%=      5-min Rain = 0
KGU1 111827Z 08015KT 07/01 A3029 RMK A01 T00660006  RH  066%=      5-min Rain = 0
KGU1 111828Z 08015KT 07/01 A3029 RMK A01 T00660006  RH  067%=      5-min Rain = 0
KGU1 111829Z 08016KT 07/01 A3029 RMK A01 T00650006  RH  067%=      5-min Rain = 0
KGU1 111830Z 08017KT 06/01 A3029 RMK A01 T00640005  RH  067%=      5-min Rain = 0
KGU1 111831Z 07015KT 06/00 A3029 RMK A01 T00630004  RH  067%=      5-min Rain = 0
KGU1 111832Z 07015G20KT 06/00 A3029 RMK A01 T00620003  RH  067%=      5-min Rain = 0
KGU1 111833Z 07016KT 06/00 A3029 RMK A01 T00600001  RH  067%=      5-min Rain = 0
KGU1 111834Z 08012G17KT 06/00 A3029 RMK A01 T00600001  RH  067%=      5-min Rain = 0
KGU1 111835Z 08016G21KT 06/00 A303 RMK A01 T00590001  RH  067%=      5-min Rain = 0
KGU1 111836Z 07015KT 06/00 A303 RMK A01 T005700-0  RH  068%=      5-min Rain = 0
KGU1 111837Z 08015KT 06/00 A303 RMK A01 T005600-0  RH  068%=      5-min Rain = 0
KGU1 111838Z 08013G19KT 06/00 A303 RMK A01 T005500-0  RH  068%=      5-min Rain = 0
KGU1 111839Z 08013KT 06/00 A303 RMK A01 T00550000  RH  068%=      5-min Rain = 0
KGU1 111840Z 08014KT 06/00 A303 RMK A01 T005500-0  RH  068%=      5-min Rain = 0
KGU1 111841Z 09013KT 05/M00 A303 RMK A01 T00541001  RH  068%=      5-min Rain = 0
KGU1 111842Z 08010KT 06/00 A3031 RMK A01 T00550000  RH  069%=      5-min Rain = 0
KGU1 111843Z 07014KT 06/00 A3031 RMK A01 T005600-0  RH  068%=      5-min Rain = 0
KGU1 111844Z 08012G17KT 05/M00 A3031 RMK A01 T00531002  RH  068%=      5-min Rain = 0
KGU1 111845Z 08013KT 05/M00 A3031 RMK A01 T00531002  RH  068%=      5-min Rain = 0
KGU1 111846Z 07012KT 05/M00 A3031 RMK A01 T00531002  RH  069%=      5-min Rain = 0
KGU1 111847Z 08012KT 05/M00 A3031 RMK A01 T00521002  RH  069%=      5-min Rain = 0
KGU1 111848Z 08011KT 05/M00 A3031 RMK A01 T00531001  RH  069%=      5-min Rain = 0
KGU1 111849Z 09014KT 05/M00 A3031 RMK A01 T00521002  RH  069%=      5-min Rain = 0
KGU1 111850Z 08014G19KT 05/M00 A3031 RMK A01 T00501004  RH  069%=      5-min Rain = 0
KGU1 111851Z 09012KT 05/M00 A3031 RMK A01 T00501003  RH  070%=      5-min Rain = 0
KGU1 111852Z 09013KT 05/M00 A3031 RMK A01 T00511002  RH  069%=      5-min Rain = 0
KGU1 111853Z 09015KT 05/M00 A3031 RMK A01 T00501003  RH  069%=      5-min Rain = 0
KGU1 111854Z 09015KT 05/M00 A3031 RMK A01 T00491004  RH  070%=      5-min Rain = 0
KGU1 111855Z 09015KT 05/M00 A3031 RMK A01 T00481003  RH  070%=      5-min Rain = 0
KGU1 111856Z 09015KT 05/M00 A3031 RMK A01 T00471003  RH  070%=      5-min Rain = 0
KGU1 111857Z 08015KT 05/M00 A3031 RMK A01 T00481002  RH  070%=      5-min Rain = 0
KGU1 111858Z 06012KT 05/M00 A3031 RMK A01 T00491003  RH  070%=      5-min Rain = 0
KGU1 111859Z 08011KT 05/M00 A3031 RMK A01 T00491002  RH  070%=      5-min Rain = 0
KGU1 111900Z 08013G18KT 05/M00 A3031 RMK A01 T00501001  RH  070%=      5-min Rain = 0
KGU1 111901Z 08013G18KT 05/M00 A3031 RMK A01 T00501002  RH  070%=      5-min Rain = 0
KGU1 111902Z 09016KT 05/M00 A3031 RMK A01 T00481004  RH  070%=      5-min Rain = 0
KGU1 111903Z 08016KT 05/M00 A3031 RMK A01 T00461004  RH  071%=      5-min Rain = 0
KGU1 111904Z 08012KT 05/M00 A3032 RMK A01 T00451004  RH  071%=      5-min Rain = 0
KGU1 111905Z 08014KT 05/M00 A3032 RMK A01 T00451004  RH  071%=      5-min Rain = 0
KGU1 111906Z 09013G18KT 05/M00 A3032 RMK A01 T00451002  RH  072%=      5-min Rain = 0
KGU1 111907Z 08017KT 05/M00 A3031 RMK A01 T00461002  RH  072%=      5-min Rain = 0
KGU1 111908Z 08017KT 04/M00 A3032 RMK A01 T00441002  RH  073%=      5-min Rain = 0
KGU1 111909Z 08015KT 04/M00 A3032 RMK A01 T00421001  RH  074%=      5-min Rain = 0
KGU1 111910Z 08015KT 04/M00 A3032 RMK A01 T00411002  RH  074%=      5-min Rain = 0
KGU1 111911Z 08013KT 04/M00 A3032 RMK A01 T00401001  RH  075%=      5-min Rain = 0
KGU1 111912Z 07013KT 04/00 A3031 RMK A01 T004000-0  RH  076%=      5-min Rain = 0
KGU1 111913Z 07015KT 04/00 A3031 RMK A01 T004000-0  RH  076%=      5-min Rain = 0
KGU1 111914Z 08014KT 04/M00 A3031 RMK A01 T00391001  RH  076%=      5-min Rain = 0
KGU1 111915Z 08016KT 04/00 A3031 RMK A01 T00390001  RH  077%=      5-min Rain = 0
KGU1 111916Z 08015KT 04/00 A3031 RMK A01 T00370000  RH  078%=      5-min Rain = 0
KGU1 111917Z 08015KT 04/00 A3031 RMK A01 T00370002  RH  078%=      5-min Rain = 0
KGU1 111918Z 07016KT 04/M00 A3031 RMK A01 T00361001  RH  078%=      5-min Rain = 0
KGU1 111919Z 07015KT 04/00 A3031 RMK A01 T00350001  RH  079%=      5-min Rain = 0
KGU1 111920Z 07017KT 04/00 A3031 RMK A01 T00350001  RH  079%=      5-min Rain = 0
KGU1 111921Z 08014KT 04/00 A3031 RMK A01 T003500-0  RH  079%=      5-min Rain = 0
KGU1 111922Z 07015KT 03/00 A3032 RMK A01 T003400-0  RH  079%=      5-min Rain = 0
KGU1 111923Z 08011G17KT 03/00 A3032 RMK A01 T00330000  RH  080%=      5-min Rain = 0
KGU1 111924Z 08013KT 04/01 A3032 RMK A01 T00350005  RH  081%=      5-min Rain = 0
KGU1 111925Z 07012G18KT 04/00 A3032 RMK A01 T00350002  RH  080%=      5-min Rain = 0
KGU1 111926Z 08015KT 03/00 A3032 RMK A01 T00340003  RH  081%=      5-min Rain = 0
KGU1 111927Z 08014KT 03/M00 A3032 RMK A01 T00321001  RH  080%=      5-min Rain = 0
KGU1 111928Z 08012G17KT 03/00 A3032 RMK A01 T003100-0  RH  081%=      5-min Rain = 0
KGU1 111929Z 08013KT 03/00 A3032 RMK A01 T00320002  RH  082%=      5-min Rain = 0
KGU1 111930Z 08014KT 03/00 A3032 RMK A01 T00320002  RH  082%=      5-min Rain = 0
KGU1 111931Z 08015KT 03/M00 A3032 RMK A01 T00311001  RH  081%=      5-min Rain = 0
KGU1 111932Z 08014KT 03/M00 A3033 RMK A01 T00291001  RH  081%=      5-min Rain = 0
KGU1 111933Z 08014KT 03/M00 A3033 RMK A01 T00291001  RH  082%=      5-min Rain = 0
KGU1 111934Z 08017KT 03/00 A3033 RMK A01 T002900-0  RH  082%=      5-min Rain = 0
KGU1 111935Z 08017KT 03/M00 A3032 RMK A01 T00281003  RH  081%=      5-min Rain = 0
KGU1 111936Z 08014KT 03/M00 A3033 RMK A01 T00271003  RH  082%=      5-min Rain = 0
KGU1 111937Z 08015G20KT 03/M00 A3033 RMK A01 T00271001  RH  083%=      5-min Rain = 0
KGU1 111938Z 08015KT 03/M00 A3033 RMK A01 T00261003  RH  082%=      5-min Rain = 0
KGU1 111939Z 07016KT 02/M00 A3033 RMK A01 T00241003  RH  083%=      5-min Rain = 0
KGU1 111940Z 07017KT 02/M01 A3033 RMK A01 T00221005  RH  083%=      5-min Rain = 0
KGU1 111941Z 08015G20KT 02/M00 A3033 RMK A01 T00221004  RH  084%=      5-min Rain = 0
KGU1 111942Z 08016KT 02/M00 A3033 RMK A01 T00211003  RH  085%=      5-min Rain = 0
KGU1 111943Z 08015KT 02/M00 A3033 RMK A01 T00201004  RH  085%=      5-min Rain = 0
KGU1 111944Z 07015KT 02/M00 A3033 RMK A01 T00201004  RH  085%=      5-min Rain = 0
KGU1 111945Z 08013KT 02/M00 A3033 RMK A01 T00201003  RH  086%=      5-min Rain = 0
KGU1 111946Z 07014KT 02/M00 A3033 RMK A01 T00201002  RH  086%=      5-min Rain = 0
KGU1 111947Z 08015G20KT 02/M00 A3033 RMK A01 T00201003  RH  086%=      5-min Rain = 0
KGU1 111948Z 08018KT 02/M00 A3033 RMK A01 T00191004  RH  086%=      5-min Rain = 0
KGU1 111949Z 07015KT 02/M01 A3033 RMK A01 T00181005  RH  085%=      5-min Rain = 0
KGU1 111950Z 07015KT 02/M01 A3034 RMK A01 T00181005  RH  086%=      5-min Rain = 0
KGU1 111951Z 07012KT 02/M01 A3034 RMK A01 T00181005  RH  086%=      5-min Rain = 0
KGU1 111952Z 07014G20KT 02/M00 A3034 RMK A01 T00181004  RH  087%=      5-min Rain = 0
KGU1 111953Z 07011KT 02/M00 A3034 RMK A01 T00181004  RH  086%=      5-min Rain = 0
KGU1 111954Z 07011KT 02/M00 A3034 RMK A01 T00181003  RH  087%=      5-min Rain = 0
KGU1 111955Z 07012G17KT 02/M00 A3034 RMK A01 T00181004  RH  086%=      5-min Rain = 0
KGU1 111956Z 06013KT 02/M00 A3034 RMK A01 T00191003  RH  086%=      5-min Rain = 0
KGU1 111957Z 07014KT 02/M00 A3034 RMK A01 T00181004  RH  086%=      5-min Rain = 0
KGU1 111958Z 07013G22KT 02/M01 A3034 RMK A01 T00171007  RH  086%=      5-min Rain = 0
KGU1 111959Z 07014KT 02/M01 A3034 RMK A01 T00161007  RH  086%=      5-min Rain = 0
KGU1 112000Z 06012KT 02/M01 A3034 RMK A01 T00161007  RH  086%=      5-min Rain = 0
KGU1 112001Z 06011G18KT 02/M01 A3034 RMK A01 T00161006  RH  086%=      5-min Rain = 0
KGU1 112002Z 06013G18KT 02/M01 A3034 RMK A01 T00161006  RH  086%=      5-min Rain = 0
KGU1 112003Z 07013G19KT 02/M01 A3034 RMK A01 T00151006  RH  086%=      5-min Rain = 0
KGU1 112004Z 06015KT 01/M01 A3034 RMK A01 T00141007  RH  087%=      5-min Rain = 0
KGU1 112005Z 06015KT 01/M01 A3034 RMK A01 T00131008  RH  087%=      5-min Rain = 0
KGU1 112006Z 07015KT 01/M01 A3034 RMK A01 T00121008  RH  087%=      5-min Rain = 0
KGU1 112007Z 06017KT 01/M01 A3034 RMK A01 T00111009  RH  088%=      5-min Rain = 0
KGU1 112008Z 07014G21KT 01/M01 A3034 RMK A01 T00111008  RH  088%=      5-min Rain = 0
KGU1 112009Z 06017KT 01/M01 A3034 RMK A01 T00101009  RH  088%=      5-min Rain = 0
KGU1 112010Z 07015G21KT 01/M01 A3034 RMK A01 T00071011  RH  088%=      5-min Rain = 0
KGU1 112011Z 07017G22KT 01/M01 A3034 RMK A01 T00061011  RH  089%=      5-min Rain = 0
KGU1 112012Z 07018KT 01/M01 A3034 RMK A01 T00051011  RH  090%=      5-min Rain = 0
KGU1 112013Z 07015G20KT 01/M01 A3034 RMK A01 T00051011  RH  090%=      5-min Rain = 0
KGU1 112014Z 07015KT 01/M01 A3034 RMK A01 T00061010  RH  090%=      5-min Rain = 0
KGU1 112015Z 06013G20KT 01/M01 A3034 RMK A01 T00061010  RH  090%=      5-min Rain = 0
KGU1 112016Z 07018G26KT 01/M01 A3034 RMK A01 T00071010  RH  089%=      5-min Rain = 0
KGU1 112017Z 06016G22KT 01/M01 A3035 RMK A01 T00051013  RH  088%=      5-min Rain = 0
KGU1 112018Z 07012KT 01/M01 A3035 RMK A01 T00051013  RH  088%=      5-min Rain = 0
KGU1 112019Z 07016G22KT 01/M01 A3035 RMK A01 T00051013  RH  089%=      5-min Rain = 0
KGU1 112020Z 07017G22KT 00/M01 A3035 RMK A01 T00041013  RH  089%=      5-min Rain = 0
KGU1 112021Z 06015G20KT 00/M01 A3035 RMK A01 T00041014  RH  089%=      5-min Rain = 0
KGU1 112022Z 06016KT 00/M01 A3035 RMK A01 T00041013  RH  089%=      5-min Rain = 0
KGU1 112023Z 05015KT 00/M01 A3035 RMK A01 T00041014  RH  089%=      5-min Rain = 0
KGU1 112024Z 05017KT 00/M01 A3035 RMK A01 T00031014  RH  089%=      5-min Rain = 0
KGU1 112025Z 06015G20KT 00/M01 A3035 RMK A01 T00041014  RH  089%=      5-min Rain = 0
KGU1 112026Z 06015KT 00/M01 A3035 RMK A01 T00041014  RH  089%=      5-min Rain = 0
KGU1 112027Z 07014G20KT 00/M01 A3034 RMK A01 T00031014  RH  089%=      5-min Rain = 0
KGU1 112028Z 06014KT 00/M01 A3034 RMK A01 T00041013  RH  090%=      5-min Rain = 0
KGU1 112029Z 06018G25KT 00/M01 A3034 RMK A01 T00031013  RH  090%=      5-min Rain = 0
KGU1 112030Z 06015KT 00/M01 A3034 RMK A01 T00031014  RH  090%=      5-min Rain = 0
KGU1 112031Z 06018KT 00/M01 A3034 RMK A01 T00021014  RH  089%=      5-min Rain = 0
KGU1 112032Z 06016G21KT 00/M02 A3034 RMK A01 T00021016  RH  089%=      5-min Rain = 0
KGU1 112033Z 06016KT 00/M02 A3034 RMK A01 T00031015  RH  089%=      5-min Rain = 0
KGU1 112034Z 06016KT 00/M02 A3034 RMK A01 T00021017  RH  088%=      5-min Rain = 0
KGU1 112035Z 06016KT 00/M02 A3034 RMK A01 T00021016  RH  088%=      5-min Rain = 0
KGU1 112036Z 06014KT 00/M02 A3034 RMK A01 T00021016  RH  088%=      5-min Rain = 0
KGU1 112037Z 06015KT 00/M02 A3034 RMK A01 T00031015  RH  088%=      5-min Rain = 0
KGU1 112038Z 07015KT 00/M02 A3034 RMK A01 T00031016  RH  088%=      5-min Rain = 0
KGU1 112039Z 07015G20KT 00/M02 A3034 RMK A01 T00031017  RH  087%=      5-min Rain = 0
KGU1 112040Z 06013KT 00/M02 A3034 RMK A01 T00021018  RH  087%=      5-min Rain = 0
KGU1 112041Z 06016G21KT 00/M02 A3034 RMK A01 T00021018  RH  087%=      5-min Rain = 0
KGU1 112042Z 06015KT 00/M02 A3034 RMK A01 T00021019  RH  087%=      5-min Rain = 0
KGU1 112043Z 06016G23KT 00/M02 A3035 RMK A01 T00021020  RH  086%=      5-min Rain = 0
KGU1 112044Z 05016G21KT 00/M02 A3035 RMK A01 T00011021  RH  085%=      5-min Rain = 0
KGU1 112045Z 06013KT 00/M02 A3034 RMK A01 T00021020  RH  086%=      5-min Rain = 0
KGU1 112046Z 07016KT 00/M02 A3035 RMK A01 T00021020  RH  086%=      5-min Rain = 0
KGU1 112047Z 06012G18KT 00/M02 A3035 RMK A01 T00021021  RH  085%=      5-min Rain = 0
KGU1 112048Z 07014KT 00/M02 A3035 RMK A01 T00031019  RH  086%=      5-min Rain = 0
KGU1 112049Z 06015KT 00/M02 A3035 RMK A01 T00031021  RH  085%=      5-min Rain = 0
KGU1 112050Z 06016G21KT 00/M02 A3035 RMK A01 T00031021  RH  085%=      5-min Rain = 0
KGU1 112051Z 06014KT 00/M02 A3035 RMK A01 T00031021  RH  085%=      5-min Rain = 0
KGU1 112052Z 06013KT 00/M02 A3034 RMK A01 T00041021  RH  085%=      5-min Rain = 0
KGU1 112053Z 05019G24KT 00/M02 A3035 RMK A01 T00041022  RH  084%=      5-min Rain = 0
KGU1 112054Z 06018G23KT 00/M02 A3035 RMK A01 T00031023  RH  084%=      5-min Rain = 0
KGU1 112055Z 07015KT 00/M02 A3035 RMK A01 T00021023  RH  084%=      5-min Rain = 0
KGU1 112056Z 06015KT 00/M02 A3035 RMK A01 T00021023  RH  084%=      5-min Rain = 0
KGU1 112057Z 06019KT 00/M02 A3035 RMK A01 T00021023  RH  084%=      5-min Rain = 0
KGU1 112058Z 05015KT 00/M02 A3036 RMK A01 T00011024  RH  084%=      5-min Rain = 0
KGU1 112059Z 06016G22KT 00/M02 A3036 RMK A01 T00011023  RH  084%=      5-min Rain = 0
KGU1 112100Z 06015KT 00/M02 A3035 RMK A01 T00021023  RH  084%=      5-min Rain = 0
KGU1 112101Z 06016KT 00/M02 A3036 RMK A01 T00021023  RH  084%=      5-min Rain = 0
KGU1 112102Z 06016KT 00/M03 A3036 RMK A01 T00011025  RH  083%=      5-min Rain = 0
KGU1 112103Z 06016G21KT 00/M03 A3036 RMK A01 T00011025  RH  083%=      5-min Rain = 0
KGU1 112104Z 06016KT 00/03 A3036 RMK A01 T00000-25  RH  084%=      5-min Rain = 0
KGU1 112105Z 07016KT 00/03 A3036 RMK A01 T00000-25  RH  084%=      5-min Rain = 0
KGU1 112106Z 06016G21KT 00/03 A3036 RMK A01 T00000-25  RH  084%=      5-min Rain = 0
KGU1 112107Z 06016KT 00/03 A3036 RMK A01 T00000-25  RH  084%=      5-min Rain = 0
KGU1 112108Z 06017KT 00/03 A3036 RMK A01 T00-00-25  RH  084%=      5-min Rain = 0
KGU1 112109Z 06016G21KT M00/M03 A3036 RMK A01 T10011025  RH  084%=      5-min Rain = 0
KGU1 112110Z 06015KT M00/M02 A3036 RMK A01 T10011024  RH  085%=      5-min Rain = 0
KGU1 112111Z 06014G19KT M00/M03 A3036 RMK A01 T10011025  RH  085%=      5-min Rain = 0
KGU1 112112Z 06011KT M00/M02 A3036 RMK A01 T10011024  RH  085%=      5-min Rain = 0
KGU1 112113Z 06014KT 00/02 A3036 RMK A01 T00000-23  RH  085%=      5-min Rain = 0
KGU1 112114Z 06013KT 00/M02 A3036 RMK A01 T00011023  RH  085%=      5-min Rain = 0
KGU1 112115Z 06014KT 00/02 A3036 RMK A01 T00000-24  RH  084%=      5-min Rain = 0
KGU1 112116Z 06011KT 00/03 A3036 RMK A01 T00-00-25  RH  084%=      5-min Rain = 0
KGU1 112117Z 06013G19KT 00/02 A3036 RMK A01 T00000-23  RH  085%=      5-min Rain = 0
KGU1 112118Z 06014KT 00/02 A3036 RMK A01 T00-00-24  RH  085%=      5-min Rain = 0
KGU1 112119Z 07015G20KT M00/M03 A3036 RMK A01 T10011025  RH  085%=      5-min Rain = 0
KGU1 112120Z 06014KT M00/M02 A3036 RMK A01 T10011024  RH  085%=      5-min Rain = 0
KGU1 112121Z 06017KT M00/M02 A3036 RMK A01 T10011024  RH  085%=      5-min Rain = 0
KGU1 112122Z 05014G21KT M00/M03 A3036 RMK A01 T10011025  RH  085%=      5-min Rain = 0
KGU1 112123Z 05015G20KT M00/M02 A3036 RMK A01 T10011024  RH  085%=      5-min Rain = 0
KGU1 112124Z 06014KT M00/M02 A3036 RMK A01 T10011024  RH  085%=      5-min Rain = 0
KGU1 112125Z 05015G20KT 00/02 A3036 RMK A01 T00-00-24  RH  085%=      5-min Rain = 0
KGU1 112126Z 05017KT M00/M03 A3036 RMK A01 T10011025  RH  084%=      5-min Rain = 0
KGU1 112127Z 06011G17KT M00/M03 A3036 RMK A01 T10011025  RH  085%=      5-min Rain = 0
KGU1 112128Z 05011G18KT 00/02 A3036 RMK A01 T00-00-24  RH  085%=      5-min Rain = 0
KGU1 112129Z 06013KT 00/02 A3036 RMK A01 T00000-24  RH  085%=      5-min Rain = 0
KGU1 112130Z 05012KT 00/02 A3036 RMK A01 T00000-24  RH  084%=      5-min Rain = 0
KGU1 112131Z 05013G18KT 00/02 A3036 RMK A01 T00000-24  RH  084%=      5-min Rain = 0
KGU1 112132Z 06014KT M00/M03 A3036 RMK A01 T10011025  RH  084%=      5-min Rain = 0
KGU1 112133Z 05016KT M00/M03 A3036 RMK A01 T10011025  RH  084%=      5-min Rain = 0
KGU1 112134Z 06015KT M00/M03 A3036 RMK A01 T10021026  RH  084%=      5-min Rain = 0
KGU1 112135Z 06012KT M00/M03 A3036 RMK A01 T10031026  RH  085%=      5-min Rain = 0
KGU1 112136Z 06015G21KT M00/M03 A3036 RMK A01 T10031026  RH  085%=      5-min Rain = 0
KGU1 112137Z 06014KT M00/M03 A3036 RMK A01 T10031026  RH  085%=      5-min Rain = 0
KGU1 112138Z 05016G22KT M00/M03 A3037 RMK A01 T10031026  RH  085%=      5-min Rain = 0
KGU1 112139Z 05015KT M00/M03 A3037 RMK A01 T10031026  RH  085%=      5-min Rain = 0
KGU1 112140Z 05011G16KT M00/M03 A3037 RMK A01 T10021025  RH  085%=      5-min Rain = 0
KGU1 112141Z 06013G19KT M00/M03 A3037 RMK A01 T10021025  RH  085%=      5-min Rain = 0
KGU1 112142Z 06015G20KT M00/M03 A3037 RMK A01 T10021026  RH  084%=      5-min Rain = 0
KGU1 112143Z 06010KT M00/M03 A3037 RMK A01 T10021026  RH  085%=      5-min Rain = 0
KGU1 112144Z 06012G17KT M00/M03 A3037 RMK A01 T10021026  RH  085%=      5-min Rain = 0
KGU1 112145Z 05014KT M00/M03 A3037 RMK A01 T10021027  RH  084%=      5-min Rain = 0
KGU1 112146Z 05014KT M00/M03 A3037 RMK A01 T10031027  RH  084%=      5-min Rain = 0
KGU1 112147Z 05012KT M00/M03 A3037 RMK A01 T10031027  RH  084%=      5-min Rain = 0
KGU1 112148Z 05014G19KT M00/M03 A3038 RMK A01 T10031026  RH  085%=      5-min Rain = 0
KGU1 112149Z 05014KT M00/M03 A3038 RMK A01 T10031027  RH  084%=      5-min Rain = 0
KGU1 112150Z 06012KT M00/M03 A3038 RMK A01 T10031027  RH  084%=      5-min Rain = 0
KGU1 112151Z 06012KT M00/M03 A3038 RMK A01 T10031027  RH  085%=      5-min Rain = 0
KGU1 112152Z 06011KT M00/M03 A3038 RMK A01 T10031027  RH  085%=      5-min Rain = 0
KGU1 112153Z 05012KT M00/M03 A3038 RMK A01 T10031027  RH  084%=      5-min Rain = 0
KGU1 112154Z 05013KT M00/M03 A3038 RMK A01 T10031027  RH  084%=      5-min Rain = 0
KGU1 112155Z 05012G17KT M00/M03 A3038 RMK A01 T10031027  RH  084%=      5-min Rain = 0
KGU1 112156Z 05012KT M00/M03 A3038 RMK A01 T10031028  RH  084%=      5-min Rain = 0
KGU1 112157Z 06013KT M00/M03 A3038 RMK A01 T10041028  RH  084%=      5-min Rain = 0
KGU1 112158Z 06011KT M00/M03 A3038 RMK A01 T10041029  RH  084%=      5-min Rain = 0
KGU1 112159Z 06011KT M01/M03 A3038 RMK A01 T10051029  RH  084%=      5-min Rain = 0
KGU1 112200Z 06013KT M01/M03 A3038 RMK A01 T10051029  RH  084%=      5-min Rain = 0
KGU1 112201Z 06013KT M01/M03 A3038 RMK A01 T10061030  RH  084%=      5-min Rain = 0
KGU1 112202Z 06013KT M01/M03 A3038 RMK A01 T10051029  RH  084%=      5-min Rain = 0
KGU1 112203Z 06013KT M01/M03 A3038 RMK A01 T10051029  RH  084%=      5-min Rain = 0
KGU1 112204Z 05012KT M01/M03 A3038 RMK A01 T10061030  RH  084%=      5-min Rain = 0
KGU1 112205Z 06010KT M01/M03 A3038 RMK A01 T10061029  RH  085%=      5-min Rain = 0
KGU1 112206Z 05010KT M01/M03 A3038 RMK A01 T10051028  RH  084%=      5-min Rain = 0
KGU1 112207Z 06011KT M00/M03 A3038 RMK A01 T10041028  RH  084%=      5-min Rain = 0
KGU1 112208Z 06014KT M00/M03 A3038 RMK A01 T10041029  RH  084%=      5-min Rain = 0
KGU1 112209Z 05017KT M00/M03 A3038 RMK A01 T10041029  RH  084%=      5-min Rain = 0
KGU1 112210Z 05012G17KT M01/M03 A3038 RMK A01 T10051030  RH  084%=      5-min Rain = 0
KGU1 112211Z 05011G16KT M00/M03 A3038 RMK A01 T10041029  RH  084%=      5-min Rain = 0
KGU1 112212Z 06012KT M00/M03 A3038 RMK A01 T10041029  RH  084%=      5-min Rain = 0
KGU1 112213Z 05015G21KT M01/M03 A3038 RMK A01 T10051029  RH  084%=      5-min Rain = 0
KGU1 112214Z 05016G21KT M01/M03 A3038 RMK A01 T10051030  RH  084%=      5-min Rain = 0
KGU1 112215Z 05013KT M01/M03 A3038 RMK A01 T10051030  RH  084%=      5-min Rain = 0
KGU1 112216Z 06015KT M00/M03 A3038 RMK A01 T10041029  RH  084%=      5-min Rain = 0
KGU1 112217Z 05013KT M01/M03 A3038 RMK A01 T10051030  RH  084%=      5-min Rain = 0
KGU1 112218Z 05012G17KT M00/M03 A3038 RMK A01 T10041029  RH  084%=      5-min Rain = 0
KGU1 112219Z 05015KT M00/M03 A3039 RMK A01 T10041030  RH  084%=      5-min Rain = 0
KGU1 112220Z 04016G21KT M01/M03 A3039 RMK A01 T10051030  RH  084%=      5-min Rain = 0
KGU1 112221Z 05012KT M01/M03 A3038 RMK A01 T10051030  RH  084%=      5-min Rain = 0
KGU1 112222Z 05014G19KT M01/M03 A3038 RMK A01 T10051029  RH  084%=      5-min Rain = 0
KGU1 112223Z 05017KT M01/M03 A3038 RMK A01 T10051030  RH  084%=      5-min Rain = 0
KGU1 112224Z 05016KT M01/M03 A3039 RMK A01 T10051030  RH  084%=      5-min Rain = 0
KGU1 112225Z 05016KT M01/M03 A3039 RMK A01 T10051030  RH  084%=      5-min Rain = 0
KGU1 112226Z 04015KT M01/M03 A3039 RMK A01 T10051030  RH  084%=      5-min Rain = 0
KGU1 112227Z 04017KT M01/M03 A3039 RMK A01 T10051030  RH  084%=      5-min Rain = 0
KGU1 112228Z 03016KT M01/M03 A3039 RMK A01 T10061031  RH  084%=      5-min Rain = 0
KGU1 112229Z 04015KT M01/M03 A3039 RMK A01 T10061031  RH  084%=      5-min Rain = 0
KGU1 112230Z 04012KT M01/M03 A3039 RMK A01 T10061031  RH  084%=      5-min Rain = 0
KGU1 112231Z 04014G19KT M01/M03 A3039 RMK A01 T10061030  RH  084%=      5-min Rain = 0
KGU1 112232Z 05011KT M01/M03 A3039 RMK A01 T10061031  RH  084%=      5-min Rain = 0
KGU1 112233Z 06014KT M01/M03 A3039 RMK A01 T10051030  RH  084%=      5-min Rain = 0
KGU1 112234Z 06013G18KT M01/M03 A3039 RMK A01 T10061031  RH  083%=      5-min Rain = 0
KGU1 112235Z 06014KT M01/M03 A3039 RMK A01 T10061031  RH  084%=      5-min Rain = 0
KGU1 112236Z 05014KT M01/M03 A3039 RMK A01 T10061031  RH  084%=      5-min Rain = 0
KGU1 112237Z 05013G18KT M01/M03 A3039 RMK A01 T10071032  RH  084%=      5-min Rain = 0
KGU1 112238Z 05012KT M01/M03 A3039 RMK A01 T10071032  RH  084%=      5-min Rain = 0
KGU1 112239Z 06012KT M01/M03 A3039 RMK A01 T10071032  RH  084%=      5-min Rain = 0
KGU1 112240Z 05015KT M01/M03 A3039 RMK A01 T10071032  RH  084%=      5-min Rain = 0
KGU1 112241Z 05013KT M01/M03 A3039 RMK A01 T10071031  RH  084%=      5-min Rain = 0
KGU1 112242Z 05012KT M01/M03 A3039 RMK A01 T10071031  RH  084%=      5-min Rain = 0
KGU1 112243Z 05014KT M01/M03 A3039 RMK A01 T10071031  RH  084%=      5-min Rain = 0
KGU1 112244Z 05011KT M01/M03 A3039 RMK A01 T10071032  RH  084%=      5-min Rain = 0
KGU1 112245Z 05014KT M01/M03 A3039 RMK A01 T10071032  RH  084%=      5-min Rain = 0
KGU1 112246Z 05014KT M01/M03 A3039 RMK A01 T10071032  RH  084%=      5-min Rain = 0
KGU1 112247Z 06012G17KT M01/M03 A3039 RMK A01 T10081032  RH  084%=      5-min Rain = 0
KGU1 112248Z 05013G18KT M01/M03 A3039 RMK A01 T10071032  RH  084%=      5-min Rain = 0
KGU1 112249Z 05014KT M01/M03 A3039 RMK A01 T10081032  RH  084%=      5-min Rain = 0
KGU1 112250Z 05015G20KT M01/M03 A3039 RMK A01 T10081033  RH  084%=      5-min Rain = 0
KGU1 112251Z 06010KT M01/M03 A3039 RMK A01 T10081032  RH  084%=      5-min Rain = 0
KGU1 112252Z 05012KT M01/M03 A3039 RMK A01 T10081032  RH  084%=      5-min Rain = 0
KGU1 112253Z 06013KT M01/M03 A3039 RMK A01 T10081032  RH  084%=      5-min Rain = 0
KGU1 112254Z 05010G17KT M01/M03 A3039 RMK A01 T10081032  RH  084%=      5-min Rain = 0
KGU1 112255Z 05016KT M01/M03 A3039 RMK A01 T10071033  RH  084%=      5-min Rain = 0
KGU1 112256Z 05017KT M01/M03 A3039 RMK A01 T10081034  RH  083%=      5-min Rain = 0
KGU1 112257Z 05016KT M01/M03 A3039 RMK A01 T10081034  RH  083%=      5-min Rain = 0
KGU1 112258Z 05016KT M01/M04 A3039 RMK A01 T10091035  RH  083%=      5-min Rain = 0
KGU1 112259Z 04015KT M01/M04 A3039 RMK A01 T10091035  RH  083%=      5-min Rain = 0
KGU1 112300Z 05016KT M01/M04 A3039 RMK A01 T10091035  RH  083%=      5-min Rain = 0
KGU1 112301Z 04014KT M01/M04 A3039 RMK A01 T10091035  RH  083%=      5-min Rain = 0
KGU1 112302Z 04013KT M01/M03 A3039 RMK A01 T10081034  RH  083%=      5-min Rain = 0
KGU1 112303Z 05016G21KT M01/M04 A3039 RMK A01 T10081035  RH  083%=      5-min Rain = 0
KGU1 112304Z 05012KT M01/M04 A3039 RMK A01 T10081035  RH  083%=      5-min Rain = 0
KGU1 112305Z 05016KT M01/M04 A3038 RMK A01 T10081035  RH  082%=      5-min Rain = 0
KGU1 112306Z 05012KT M01/M04 A3039 RMK A01 T10091036  RH  082%=      5-min Rain = 0
KGU1 112307Z 04014G21KT M01/M04 A3039 RMK A01 T10081035  RH  082%=      5-min Rain = 0
KGU1 112308Z 04016G21KT M01/M04 A3039 RMK A01 T10081036  RH  082%=      5-min Rain = 0
KGU1 112309Z 04015KT M01/M04 A3039 RMK A01 T10081037  RH  081%=      5-min Rain = 0
KGU1 112310Z 04015KT M01/M04 A3039 RMK A01 T10091038  RH  081%=      5-min Rain = 0
KGU1 112311Z 05016G22KT M01/M04 A3039 RMK A01 T10091038  RH  081%=      5-min Rain = 0
KGU1 112312Z 05015KT M01/M04 A3039 RMK A01 T10091039  RH  081%=      5-min Rain = 0
KGU1 112313Z 04014KT M01/M04 A3039 RMK A01 T10091039  RH  081%=      5-min Rain = 0
KGU1 112314Z 04014KT M01/M04 A3039 RMK A01 T10091039  RH  081%=      5-min Rain = 0
KGU1 112315Z 04016KT M01/M04 A3039 RMK A01 T10091040  RH  080%=      5-min Rain = 0
KGU1 112316Z 04014KT M01/M04 A304 RMK A01 T10091040  RH  080%=      5-min Rain = 0
KGU1 112317Z 04017KT M01/M04 A3039 RMK A01 T10091039  RH  080%=      5-min Rain = 0
KGU1 112318Z 05014KT M01/M04 A304 RMK A01 T10101040  RH  080%=      5-min Rain = 0
KGU1 112319Z 04016KT M01/M04 A304 RMK A01 T10101040  RH  080%=      5-min Rain = 0
KGU1 112320Z 05014KT M01/M04 A304 RMK A01 T10101040  RH  080%=      5-min Rain = 0
KGU1 112321Z 05014KT M01/M04 A304 RMK A01 T10101040  RH  080%=      5-min Rain = 0
KGU1 112322Z 05013G18KT M01/M04 A304 RMK A01 T10101040  RH  080%=      5-min Rain = 0
KGU1 112323Z 05013KT M01/M04 A304 RMK A01 T10091039  RH  080%=      5-min Rain = 0
KGU1 112324Z 05014KT M01/M04 A304 RMK A01 T10091040  RH  080%=      5-min Rain = 0
KGU1 112325Z 05013KT M01/M04 A304 RMK A01 T10101041  RH  080%=      5-min Rain = 0
KGU1 112326Z 05015KT M01/M04 A304 RMK A01 T10101041  RH  080%=      5-min Rain = 0
KGU1 112327Z 05013KT M01/M04 A304 RMK A01 T10101041  RH  080%=      5-min Rain = 0
KGU1 112328Z 04013KT M01/M04 A304 RMK A01 T10091040  RH  080%=      5-min Rain = 0
KGU1 112329Z 04013KT M01/M04 A304 RMK A01 T10091040  RH  080%=      5-min Rain = 0
KGU1 112330Z 05013KT M01/M04 A304 RMK A01 T10091041  RH  080%=      5-min Rain = 0
KGU1 112331Z 05018KT M01/M04 A304 RMK A01 T10091041  RH  079%=      5-min Rain = 0
KGU1 112332Z 05016KT M01/M04 A304 RMK A01 T10101042  RH  079%=      5-min Rain = 0
KGU1 112333Z 04014KT M01/M04 A304 RMK A01 T10101042  RH  079%=      5-min Rain = 0
KGU1 112334Z 05014KT M01/M04 A304 RMK A01 T10101042  RH  079%=      5-min Rain = 0
KGU1 112335Z 04018KT M01/M04 A304 RMK A01 T10101042  RH  079%=      5-min Rain = 0
KGU1 112336Z 04017KT M01/M04 A304 RMK A01 T10101043  RH  079%=      5-min Rain = 0
KGU1 112337Z 04015KT M01/M04 A304 RMK A01 T10101043  RH  079%=      5-min Rain = 0
KGU1 112338Z 04015KT M01/M04 A304 RMK A01 T10101044  RH  078%=      5-min Rain = 0
KGU1 112339Z 04015G20KT M01/M04 A304 RMK A01 T10101044  RH  078%=      5-min Rain = 0
KGU1 112340Z 05015G21KT M01/M04 A304 RMK A01 T10091043  RH  078%=      5-min Rain = 0
KGU1 112341Z 05018G23KT M01/M04 A304 RMK A01 T10101044  RH  078%=      5-min Rain = 0
KGU1 112342Z 05018KT M01/M05 A304 RMK A01 T10111045  RH  078%=      5-min Rain = 0
KGU1 112343Z 04016KT M01/M05 A304 RMK A01 T10111045  RH  078%=      5-min Rain = 0
KGU1 112344Z 05013G18KT M01/M04 A304 RMK A01 T10111044  RH  079%=      5-min Rain = 0
KGU1 112345Z 04017KT M01/M04 A304 RMK A01 T10101043  RH  079%=      5-min Rain = 0
KGU1 112346Z 05016KT M01/M04 A304 RMK A01 T10101044  RH  078%=      5-min Rain = 0
KGU1 112347Z 04014KT M01/M04 A304 RMK A01 T10101044  RH  078%=      5-min Rain = 0
KGU1 112348Z 04015KT M01/M04 A304 RMK A01 T10101044  RH  078%=      5-min Rain = 0
KGU1 112349Z 04015KT M01/M05 A304 RMK A01 T10101045  RH  078%=      5-min Rain = 0
KGU1 112350Z 05016KT M01/M05 A304 RMK A01 T10101045  RH  078%=      5-min Rain = 0
KGU1 112351Z 05013G18KT M01/M05 A304 RMK A01 T10101045  RH  078%=      5-min Rain = 0
KGU1 112352Z 04016KT M01/M05 A304 RMK A01 T10111045  RH  078%=      5-min Rain = 0
KGU1 112353Z 05013G19KT M01/M05 A304 RMK A01 T10111045  RH  078%=      5-min Rain = 0
KGU1 112354Z 06012KT M01/M05 A304 RMK A01 T10111045  RH  078%=      5-min Rain = 0
KGU1 112355Z 05013KT M01/M04 A304 RMK A01 T10101044  RH  078%=      5-min Rain = 0
KGU1 112356Z 05014KT M01/M05 A304 RMK A01 T10101045  RH  078%=      5-min Rain = 0
KGU1 112357Z 05013KT M01/M05 A304 RMK A01 T10101045  RH  078%=      5-min Rain = 0
KGU1 112358Z 05014KT M01/M05 A304 RMK A01 T10111045  RH  078%=      5-min Rain = 0
KGU1 112359Z 05014KT M01/M05 A304 RMK A01 T10111046  RH  077%=      5-min Rain = 0
KGU1 120000Z 05018KT M01/M05 A3041 RMK A01 T10111046  RH  078%=      5-min Rain = 0
KGU1 120001Z 05016KT M01/M05 A304 RMK A01 T10111046  RH  078%=      5-min Rain = 0
KGU1 120002Z 05014KT M01/M05 A3041 RMK A01 T10121046  RH  078%=      5-min Rain = 0
KGU1 120003Z 05017KT M01/M05 A304 RMK A01 T10121047  RH  078%=      5-min Rain = 0
KGU1 120004Z 05013G19KT M01/M05 A304 RMK A01 T10121047  RH  078%=      5-min Rain = 0
KGU1 120005Z 05017KT M01/M05 A304 RMK A01 T10121047  RH  077%=      5-min Rain = 0
KGU1 120006Z 05015KT M01/M05 A304 RMK A01 T10121047  RH  077%=      5-min Rain = 0
KGU1 120007Z 05013KT M01/M05 A304 RMK A01 T10121047  RH  077%=      5-min Rain = 0
KGU1 120008Z 05013KT M01/M05 A304 RMK A01 T10121047  RH  077%=      5-min Rain = 0
KGU1 120009Z 05014G19KT M01/M05 A304 RMK A01 T10121047  RH  077%=      5-min Rain = 0
KGU1 120010Z 05014KT M01/M05 A304 RMK A01 T10121047  RH  077%=      5-min Rain = 0
KGU1 120011Z 05013G18KT M01/M05 A304 RMK A01 T10121047  RH  077%=      5-min Rain = 0
KGU1 120012Z 05016G23KT M01/M05 A3041 RMK A01 T10121047  RH  077%=      5-min Rain = 0
KGU1 120013Z 05015KT M01/M05 A3041 RMK A01 T10121048  RH  077%=      5-min Rain = 0
KGU1 120014Z 05013KT M01/M05 A3041 RMK A01 T10121047  RH  077%=      5-min Rain = 0
KGU1 120015Z 05014KT M01/M05 A3041 RMK A01 T10131048  RH  077%=      5-min Rain = 0
KGU1 120016Z 06013KT M01/M05 A3041 RMK A01 T10121047  RH  077%=      5-min Rain = 0
KGU1 120017Z 05014KT M01/M05 A3041 RMK A01 T10131047  RH  078%=      5-min Rain = 0
KGU1 120018Z 06015KT M01/M05 A3041 RMK A01 T10121047  RH  077%=      5-min Rain = 0
KGU1 120019Z 06014KT M01/M05 A3041 RMK A01 T10131048  RH  077%=      5-min Rain = 0
KGU1 120020Z 05013KT M01/M05 A3041 RMK A01 T10131048  RH  078%=      5-min Rain = 0
KGU1 120021Z 05011KT M01/M05 A3041 RMK A01 T10131048  RH  078%=      5-min Rain = 0
KGU1 120022Z 05015KT M01/M05 A3041 RMK A01 T10131048  RH  077%=      5-min Rain = 0
KGU1 120023Z 05015KT M01/M05 A3041 RMK A01 T10141049  RH  077%=      5-min Rain = 0
KGU1 120024Z 05015KT M01/M05 A3041 RMK A01 T10141049  RH  077%=      5-min Rain = 0
KGU1 120025Z 05011G17KT M01/M05 A3041 RMK A01 T10141049  RH  077%=      5-min Rain = 0
KGU1 120026Z 05015KT M01/M05 A3041 RMK A01 T10141049  RH  077%=      5-min Rain = 0
KGU1 120027Z 05012G18KT M01/M05 A3041 RMK A01 T10141049  RH  077%=      5-min Rain = 0
KGU1 120028Z 05018KT M01/M05 A3041 RMK A01 T10141049  RH  077%=      5-min Rain = 0
KGU1 120029Z 06013KT M01/M05 A3041 RMK A01 T10141050  RH  077%=      5-min Rain = 0
KGU1 120030Z 05014G20KT M01/M05 A3041 RMK A01 T10141050  RH  077%=      5-min Rain = 0
KGU1 120031Z 05016KT M02/M05 A3041 RMK A01 T10151050  RH  077%=      5-min Rain = 0
KGU1 120032Z 05016G23KT M02/M05 A3041 RMK A01 T10151050  RH  077%=      5-min Rain = 0
KGU1 120033Z 05016KT M02/M05 A3041 RMK A01 T10151050  RH  077%=      5-min Rain = 0
KGU1 120034Z 05015KT M02/M05 A3041 RMK A01 T10151050  RH  077%=      5-min Rain = 0
KGU1 120035Z 05017G22KT M02/M05 A3041 RMK A01 T10161050  RH  077%=      5-min Rain = 0
KGU1 120036Z 05017KT M02/M05 A3041 RMK A01 T10161050  RH  077%=      5-min Rain = 0
KGU1 120037Z 04018KT M02/M05 A3042 RMK A01 T10161051  RH  077%=      5-min Rain = 0
KGU1 120038Z 04013G19KT M02/M05 A3042 RMK A01 T10161050  RH  078%=      5-min Rain = 0
KGU1 120039Z 05015KT M02/M05 A3042 RMK A01 T10161050  RH  078%=      5-min Rain = 0
KGU1 120040Z 05012G17KT M02/M05 A3042 RMK A01 T10161050  RH  078%=      5-min Rain = 0
KGU1 120041Z 05015G21KT M02/M05 A3042 RMK A01 T10151050  RH  078%=      5-min Rain = 0
KGU1 120042Z 06014G20KT M02/M05 A3042 RMK A01 T10161050  RH  078%=      5-min Rain = 0
KGU1 120043Z 06012KT M02/M05 A3042 RMK A01 T10161050  RH  078%=      5-min Rain = 0
KGU1 120044Z 06015G20KT M02/M05 A3042 RMK A01 T10161050  RH  078%=      5-min Rain = 0
KGU1 120045Z 05016G22KT M02/M05 A3042 RMK A01 T10161051  RH  078%=      5-min Rain = 0
KGU1 120046Z 06018KT M02/M05 A3042 RMK A01 T10171051  RH  078%=      5-min Rain = 0
KGU1 120047Z 05018KT M02/M05 A3042 RMK A01 T10171051  RH  078%=      5-min Rain = 0
KGU1 120048Z 06016KT M02/M05 A3042 RMK A01 T10171051  RH  078%=      5-min Rain = 0
KGU1 120049Z 06015KT M02/M05 A3042 RMK A01 T10171051  RH  078%=      5-min Rain = 0
KGU1 120050Z 05014KT M02/M05 A3042 RMK A01 T10171051  RH  078%=      5-min Rain = 0
KGU1 120051Z 06014G19KT M02/M05 A3042 RMK A01 T10171051  RH  078%=      5-min Rain = 0
KGU1 120052Z 05016KT M02/M05 A3042 RMK A01 T10171051  RH  078%=      5-min Rain = 0
KGU1 120053Z 05015KT M02/M05 A3042 RMK A01 T10171051  RH  078%=      5-min Rain = 0
KGU1 120054Z 05017KT M02/M05 A3042 RMK A01 T10171051  RH  078%=      5-min Rain = 0
KGU1 120055Z 06015KT M02/M05 A3042 RMK A01 T10171052  RH  077%=      5-min Rain = 0
KGU1 120056Z 05016KT M02/M05 A3042 RMK A01 T10171052  RH  078%=      5-min Rain = 0
KGU1 120057Z 05016KT M02/M05 A3042 RMK A01 T10171051  RH  078%=      5-min Rain = 0
KGU1 120058Z 05012KT M02/M05 A3042 RMK A01 T10171052  RH  077%=      5-min Rain = 0
KGU1 120059Z 05012G18KT M02/M05 A3042 RMK A01 T10171051  RH  078%=      5-min Rain = 0
KGU1 120100Z 05015G21KT M02/M05 A3042 RMK A01 T10171052  RH  077%=      5-min Rain = 0
KGU1 120101Z 05013G19KT M02/M05 A3042 RMK A01 T10171053  RH  077%=      5-min Rain = 0
KGU1 120102Z 05016KT M02/M05 A3042 RMK A01 T10181053  RH  077%=      5-min Rain = 0
KGU1 120103Z 05016G21KT M02/M05 A3043 RMK A01 T10181053  RH  077%=      5-min Rain = 0
KGU1 120104Z 05016KT M02/M05 A3043 RMK A01 T10181054  RH  077%=      5-min Rain = 0
KGU1 120105Z 05014KT M02/M05 A3043 RMK A01 T10181053  RH  077%=      5-min Rain = 0
KGU1 120106Z 05013KT M02/M05 A3043 RMK A01 T10181053  RH  077%=      5-min Rain = 0
KGU1 120107Z 06012G17KT M02/M05 A3043 RMK A01 T10181053  RH  077%=      5-min Rain = 0
KGU1 120108Z 06013KT M02/M05 A3043 RMK A01 T10181053  RH  077%=      5-min Rain = 0
KGU1 120109Z 05012KT M02/M05 A3043 RMK A01 T10181053  RH  077%=      5-min Rain = 0
KGU1 120110Z 05013KT M02/M05 A3043 RMK A01 T10191053  RH  077%=      5-min Rain = 0
KGU1 120111Z 06015KT M02/M05 A3043 RMK A01 T10191054  RH  078%=      5-min Rain = 0
KGU1 120112Z 05017KT M02/M05 A3043 RMK A01 T10201054  RH  078%=      5-min Rain = 0
KGU1 120113Z 05012KT M02/M06 A3043 RMK A01 T10211055  RH  078%=      5-min Rain = 0
KGU1 120114Z 06013KT M02/M06 A3043 RMK A01 T10211055  RH  078%=      5-min Rain = 0
KGU1 120115Z 05012KT M02/M05 A3043 RMK A01 T10211054  RH  078%=      5-min Rain = 0
KGU1 120116Z 05010KT M02/M05 A3043 RMK A01 T10211054  RH  078%=      5-min Rain = 0
KGU1 120117Z 06010KT M02/M05 A3043 RMK A01 T10201053  RH  078%=      5-min Rain = 0
KGU1 120118Z 06014KT M02/M05 A3043 RMK A01 T10211054  RH  078%=      5-min Rain = 0
KGU1 120119Z 06013KT M02/M06 A3043 RMK A01 T10221055  RH  078%=      5-min Rain = 0
KGU1 120120Z 06012KT M02/M06 A3044 RMK A01 T10221056  RH  078%=      5-min Rain = 0
KGU1 120121Z 06012G17KT M02/M06 A3044 RMK A01 T10221055  RH  078%=      5-min Rain = 0
KGU1 120122Z 06012KT M02/M06 A3044 RMK A01 T10221055  RH  078%=      5-min Rain = 0
KGU1 120123Z 06013KT M02/M06 A3044 RMK A01 T10221055  RH  079%=      5-min Rain = 0
KGU1 120124Z 05014KT M02/M06 A3044 RMK A01 T10231056  RH  078%=      5-min Rain = 0
KGU1 120125Z 06012KT M02/M06 A3044 RMK A01 T10231056  RH  079%=      5-min Rain = 0
KGU1 120126Z 05011KT M02/M06 A3044 RMK A01 T10221055  RH  079%=      5-min Rain = 0
KGU1 120127Z 05010KT M02/M06 A3044 RMK A01 T10221055  RH  079%=      5-min Rain = 0
KGU1 120128Z 06009KT M02/M06 A3044 RMK A01 T10221055  RH  079%=      5-min Rain = 0
KGU1 120129Z 05012KT M02/M05 A3044 RMK A01 T10221054  RH  078%=      5-min Rain = 0
KGU1 120130Z 06012KT M02/M06 A3044 RMK A01 T10221055  RH  078%=      5-min Rain = 0
KGU1 120131Z 06012KT M02/M06 A3044 RMK A01 T10221055  RH  079%=      5-min Rain = 0
KGU1 120132Z 06009KT M02/M06 A3044 RMK A01 T10221055  RH  079%=      5-min Rain = 0
KGU1 120133Z 06012KT M02/M06 A3045 RMK A01 T10221055  RH  079%=      5-min Rain = 0
KGU1 120134Z 05012KT M02/M06 A3045 RMK A01 T10221055  RH  079%=      5-min Rain = 0
KGU1 120135Z 06011KT M02/M06 A3045 RMK A01 T10231055  RH  079%=      5-min Rain = 0
KGU1 120136Z 06007KT M02/M06 A3045 RMK A01 T10231055  RH  079%=      5-min Rain = 0
KGU1 120137Z 06011KT M02/M06 A3045 RMK A01 T10221055  RH  079%=      5-min Rain = 0
KGU1 120138Z 06010KT M02/M06 A3045 RMK A01 T10231056  RH  079%=      5-min Rain = 0
KGU1 120139Z 06009KT M02/M06 A3045 RMK A01 T10241056  RH  079%=      5-min Rain = 0
KGU1 120140Z 07010KT M02/M06 A3045 RMK A01 T10241056  RH  079%=      5-min Rain = 0
KGU1 120141Z 07010KT M03/M06 A3045 RMK A01 T10251056  RH  079%=      5-min Rain = 0
KGU1 120142Z 07012KT M03/M06 A3045 RMK A01 T10251057  RH  079%=      5-min Rain = 0
KGU1 120143Z 06012KT M03/M06 A3045 RMK A01 T10251057  RH  079%=      5-min Rain = 0
KGU1 120144Z 06013KT M03/M06 A3045 RMK A01 T10261057  RH  079%=      5-min Rain = 0
KGU1 120145Z 06013KT M03/M06 A3045 RMK A01 T10261057  RH  079%=      5-min Rain = 0
KGU1 120146Z 06014KT M03/M06 A3045 RMK A01 T10261057  RH  079%=      5-min Rain = 0
KGU1 120147Z 06013KT M03/M06 A3045 RMK A01 T10261057  RH  080%=      5-min Rain = 0
KGU1 120148Z 06015KT M03/M06 A3045 RMK A01 T10261057  RH  080%=      5-min Rain = 0
KGU1 120149Z 05012KT M03/M06 A3045 RMK A01 T10261057  RH  080%=      5-min Rain = 0
KGU1 120150Z 06015KT M03/M06 A3045 RMK A01 T10261057  RH  080%=      5-min Rain = 0
KGU1 120151Z 06014KT M03/M06 A3045 RMK A01 T10271057  RH  080%=      5-min Rain = 0
KGU1 120152Z 06015KT M03/M06 A3045 RMK A01 T10271057  RH  080%=      5-min Rain = 0
KGU1 120153Z 06013G19KT M03/M06 A3045 RMK A01 T10271057  RH  080%=      5-min Rain = 0
KGU1 120154Z 06013KT M03/M06 A3045 RMK A01 T10271057  RH  080%=      5-min Rain = 0
KGU1 120155Z 06014KT M03/M06 A3046 RMK A01 T10271057  RH  080%=      5-min Rain = 0
KGU1 120156Z 06013KT M03/M06 A3046 RMK A01 T10271057  RH  080%=      5-min Rain = 0
KGU1 120157Z 06014KT M03/M06 A3046 RMK A01 T10271057  RH  080%=      5-min Rain = 0
KGU1 120158Z 06013KT M03/M06 A3046 RMK A01 T10281058  RH  080%=      5-min Rain = 0
KGU1 120159Z 06013KT M03/M06 A3046 RMK A01 T10281057  RH  080%=      5-min Rain = 0
KGU1 120200Z 06013KT M03/M06 A3046 RMK A01 T10281057  RH  080%=      5-min Rain = 0
KGU1 120201Z 06013KT M03/M06 A3046 RMK A01 T10271057  RH  080%=      5-min Rain = 0
KGU1 120202Z 06011KT M03/M06 A3046 RMK A01 T10271056  RH  080%=      5-min Rain = 0
KGU1 120203Z 06012G18KT M03/M06 A3046 RMK A01 T10271056  RH  080%=      5-min Rain = 0
KGU1 120204Z 06013KT M03/M06 A3046 RMK A01 T10271056  RH  080%=      5-min Rain = 0
KGU1 120205Z 06014KT M03/M06 A3046 RMK A01 T10271056  RH  080%=      5-min Rain = 0
KGU1 120206Z 06016KT M03/M06 A3046 RMK A01 T10271056  RH  080%=      5-min Rain = 0
KGU1 120207Z 06014G19KT M03/M06 A3046 RMK A01 T10271057  RH  081%=      5-min Rain = 0
KGU1 120208Z 06012G17KT M03/M06 A3046 RMK A01 T10271056  RH  081%=      5-min Rain = 0
KGU1 120209Z 06014KT M03/M06 A3046 RMK A01 T10271056  RH  081%=      5-min Rain = 0
KGU1 120210Z 05012KT M03/M06 A3046 RMK A01 T10271056  RH  081%=      5-min Rain = 0
KGU1 120211Z 05014KT M03/M06 A3046 RMK A01 T10271055  RH  081%=      5-min Rain = 0
KGU1 120212Z 06013G18KT M03/M06 A3046 RMK A01 T10271056  RH  081%=      5-min Rain = 0
KGU1 120213Z 05014KT M03/M06 A3046 RMK A01 T10271055  RH  081%=      5-min Rain = 0
KGU1 120214Z 06015KT M03/M06 A3046 RMK A01 T10271055  RH  081%=      5-min Rain = 0
KGU1 120215Z 05015KT M03/M06 A3046 RMK A01 T10271055  RH  081%=      5-min Rain = 0
KGU1 120216Z 06016KT M03/M06 A3046 RMK A01 T10281055  RH  081%=      5-min Rain = 0
KGU1 120217Z 06012KT M03/M06 A3046 RMK A01 T10281055  RH  082%=      5-min Rain = 0
KGU1 120218Z 06014KT M03/M06 A3046 RMK A01 T10271055  RH  082%=      5-min Rain = 0
KGU1 120219Z 05016KT M03/M06 A3046 RMK A01 T10271055  RH  082%=      5-min Rain = 0
KGU1 120220Z 06011G16KT M03/M05 A3046 RMK A01 T10271054  RH  082%=      5-min Rain = 0
KGU1 120221Z 06013G19KT M03/M05 A3046 RMK A01 T10271054  RH  082%=      5-min Rain = 0
KGU1 120222Z 06015G20KT M03/M06 A3046 RMK A01 T10271055  RH  082%=      5-min Rain = 0
KGU1 120223Z 06014KT M03/M06 A3046 RMK A01 T10271055  RH  082%=      5-min Rain = 0
KGU1 120224Z 06015KT M03/M06 A3047 RMK A01 T10281055  RH  082%=      5-min Rain = 0
KGU1 120225Z 06015KT M03/M06 A3046 RMK A01 T10281056  RH  081%=      5-min Rain = 0
KGU1 120226Z 06016KT M03/M06 A3046 RMK A01 T10291057  RH  081%=      5-min Rain = 0
KGU1 120227Z 06017KT M03/M06 A3046 RMK A01 T10291057  RH  081%=      5-min Rain = 0
KGU1 120228Z 06013G18KT M03/M06 A3046 RMK A01 T10301058  RH  082%=      5-min Rain = 0
KGU1 120229Z 05014KT M03/M06 A3046 RMK A01 T10301058  RH  082%=      5-min Rain = 0
KGU1 120230Z 05017KT M03/M06 A3046 RMK A01 T10301058  RH  082%=      5-min Rain = 0
KGU1 120231Z 06016KT M03/M06 A3046 RMK A01 T10311058  RH  082%=      5-min Rain = 0
KGU1 120232Z 05016KT M03/M06 A3046 RMK A01 T10311058  RH  082%=      5-min Rain = 0
KGU1 120233Z 05011G16KT M03/M06 A3046 RMK A01 T10311058  RH  082%=      5-min Rain = 0
KGU1 120234Z 05010KT M03/M06 A3046 RMK A01 T10311057  RH  082%=      5-min Rain = 0
KGU1 120235Z 05010KT M03/M06 A3046 RMK A01 T10301057  RH  082%=      5-min Rain = 0
KGU1 120236Z 06015KT M03/M06 A3046 RMK A01 T10301057  RH  082%=      5-min Rain = 0
KGU1 120237Z 06015KT M03/M06 A3046 RMK A01 T10301058  RH  081%=      5-min Rain = 0
KGU1 120238Z 05016KT M03/M06 A3046 RMK A01 T10311058  RH  082%=      5-min Rain = 0
KGU1 120239Z 05017KT M03/M06 A3046 RMK A01 T10311058  RH  082%=      5-min Rain = 0
KGU1 120240Z 05014KT M03/M06 A3046 RMK A01 T10321058  RH  082%=      5-min Rain = 0
KGU1 120241Z 07015KT M03/M06 A3046 RMK A01 T10321059  RH  082%=      5-min Rain = 0
KGU1 120242Z 06016KT M03/M06 A3046 RMK A01 T10321060  RH  081%=      5-min Rain = 0
KGU1 120243Z 06016KT M03/M06 A3046 RMK A01 T10321060  RH  081%=      5-min Rain = 0
KGU1 120244Z 06015KT M03/M06 A3046 RMK A01 T10321060  RH  081%=      5-min Rain = 0
KGU1 120245Z 05016KT M03/M06 A3046 RMK A01 T10321060  RH  081%=      5-min Rain = 0
KGU1 120246Z 05016KT M03/M06 A3046 RMK A01 T10321060  RH  081%=      5-min Rain = 0
KGU1 120247Z 05013G18KT M03/M06 A3046 RMK A01 T10331060  RH  081%=      5-min Rain = 0
KGU1 120248Z 05015KT M03/M06 A3046 RMK A01 T10331060  RH  082%=      5-min Rain = 0
KGU1 120249Z 05012KT M03/M06 A3046 RMK A01 T10331061  RH  081%=      5-min Rain = 0
KGU1 120250Z 06013KT M03/M06 A3046 RMK A01 T10331060  RH  081%=      5-min Rain = 0
KGU1 120251Z 06013KT M03/M06 A3046 RMK A01 T10331061  RH  081%=      5-min Rain = 0
KGU1 120252Z 06012KT M03/M06 A3046 RMK A01 T10331061  RH  081%=      5-min Rain = 0
KGU1 120253Z 06011KT M03/M06 A3046 RMK A01 T10331061  RH  081%=      5-min Rain = 0
KGU1 120254Z 06016G21KT M03/M06 A3046 RMK A01 T10331061  RH  081%=      5-min Rain = 0
KGU1 120255Z 06015KT M04/M06 A3046 RMK A01 T10351063  RH  081%=      5-min Rain = 0
KGU1 120256Z 06014KT M04/M06 A3046 RMK A01 T10351063  RH  081%=      5-min Rain = 0
KGU1 120257Z 06015KT M04/M06 A3046 RMK A01 T10351062  RH  081%=      5-min Rain = 0
KGU1 120258Z 07017KT M04/M06 A3046 RMK A01 T10361063  RH  081%=      5-min Rain = 0
KGU1 120259Z 06014KT M04/M06 A3046 RMK A01 T10361063  RH  082%=      5-min Rain = 0
KGU1 120300Z 06015KT M04/M06 A3046 RMK A01 T10361063  RH  082%=      5-min Rain = 0
KGU1 120301Z 07015KT M04/M06 A3046 RMK A01 T10361063  RH  082%=      5-min Rain = 0
KGU1 120302Z 06015G22KT M04/M06 A3046 RMK A01 T10361063  RH  082%=      5-min Rain = 0
KGU1 120303Z 06014G19KT M04/M06 A3046 RMK A01 T10371063  RH  082%=      5-min Rain = 0
KGU1 120304Z 06013G18KT M04/M06 A3046 RMK A01 T10371064  RH  082%=      5-min Rain = 0
KGU1 120305Z 06015KT M04/M06 A3046 RMK A01 T10371063  RH  082%=      5-min Rain = 0
KGU1 120306Z 05013KT M04/M06 A3046 RMK A01 T10371063  RH  082%=      5-min Rain = 0
KGU1 120307Z 05015KT M04/M06 A3047 RMK A01 T10371064  RH  082%=      5-min Rain = 0
KGU1 120308Z 05015G20KT M04/M06 A3047 RMK A01 T10371064  RH  082%=      5-min Rain = 0
KGU1 120309Z 06015KT M04/M06 A3047 RMK A01 T10371064  RH  082%=      5-min Rain = 0
KGU1 120310Z 05018KT M04/M07 A3047 RMK A01 T10381065  RH  082%=      5-min Rain = 0
KGU1 120311Z 06013KT M04/M07 A3047 RMK A01 T10381065  RH  082%=      5-min Rain = 0
KGU1 120312Z 05014KT M04/M07 A3047 RMK A01 T10381065  RH  082%=      5-min Rain = 0
KGU1 120313Z 06014KT M04/M07 A3047 RMK A01 T10381065  RH  082%=      5-min Rain = 0
KGU1 120314Z 05015KT M04/M07 A3047 RMK A01 T10381065  RH  082%=      5-min Rain = 0
KGU1 120315Z 06015KT M04/M07 A3047 RMK A01 T10381065  RH  082%=      5-min Rain = 0
KGU1 120316Z 06014KT M04/M07 A3047 RMK A01 T10381065  RH  082%=      5-min Rain = 0
KGU1 120317Z 06014KT M04/M07 A3047 RMK A01 T10381065  RH  082%=      5-min Rain = 0
KGU1 120318Z 06011G16KT M04/M07 A3047 RMK A01 T10381065  RH  082%=      5-min Rain = 0
KGU1 120319Z 06011G17KT M04/M07 A3047 RMK A01 T10381065  RH  082%=      5-min Rain = 0
KGU1 120320Z 06013KT M04/M07 A3047 RMK A01 T10381065  RH  081%=      5-min Rain = 0
KGU1 120321Z 05014KT M04/M07 A3047 RMK A01 T10371065  RH  081%=      5-min Rain = 0
KGU1 120322Z 05015KT M04/M07 A3047 RMK A01 T10381065  RH  081%=      5-min Rain = 0
KGU1 120323Z 05017KT M04/M07 A3047 RMK A01 T10381066  RH  081%=      5-min Rain = 0
KGU1 120324Z 06014G19KT M04/M07 A3047 RMK A01 T10381066  RH  081%=      5-min Rain = 0
KGU1 120325Z 06014KT M04/M07 A3047 RMK A01 T10381066  RH  081%=      5-min Rain = 0
KGU1 120326Z 05013KT M04/M07 A3047 RMK A01 T10381066  RH  081%=      5-min Rain = 0
KGU1 120327Z 06010KT M04/M07 A3047 RMK A01 T10381066  RH  081%=      5-min Rain = 0
KGU1 120328Z 06013KT M04/M07 A3048 RMK A01 T10381066  RH  081%=      5-min Rain = 0
KGU1 120329Z 06014KT M04/M07 A3048 RMK A01 T10381066  RH  081%=      5-min Rain = 0
KGU1 120330Z 06012KT M04/M07 A3048 RMK A01 T10381066  RH  081%=      5-min Rain = 0
KGU1 120331Z 06013KT M04/M07 A3048 RMK A01 T10391067  RH  081%=      5-min Rain = 0
KGU1 120332Z 07010KT M04/M07 A3048 RMK A01 T10381066  RH  081%=      5-min Rain = 0
KGU1 120333Z 06010G16KT M04/M07 A3048 RMK A01 T10381066  RH  081%=      5-min Rain = 0
KGU1 120334Z 06011KT M04/M07 A3048 RMK A01 T10381066  RH  081%=      5-min Rain = 0
KGU1 120335Z 06012G17KT M04/M07 A3048 RMK A01 T10381066  RH  081%=      5-min Rain = 0
KGU1 120336Z 06012G17KT M04/M07 A3048 RMK A01 T10381067  RH  080%=      5-min Rain = 0
KGU1 120337Z 06011G16KT M04/M07 A3048 RMK A01 T10381067  RH  080%=      5-min Rain = 0
KGU1 120338Z 06014KT M04/M07 A3048 RMK A01 T10381067  RH  080%=      5-min Rain = 0
KGU1 120339Z 06013KT M04/M07 A3048 RMK A01 T10391068  RH  080%=      5-min Rain = 0
KGU1 120340Z 06012KT M04/M07 A3049 RMK A01 T10391068  RH  080%=      5-min Rain = 0
KGU1 120341Z 05014KT M04/M07 A3049 RMK A01 T10381067  RH  080%=      5-min Rain = 0
KGU1 120342Z 05013KT M04/M07 A3049 RMK A01 T10381068  RH  080%=      5-min Rain = 0
KGU1 120343Z 05013KT M04/M07 A3049 RMK A01 T10381068  RH  080%=      5-min Rain = 0
KGU1 120344Z 06012KT M04/M07 A3049 RMK A01 T10381068  RH  080%=      5-min Rain = 0
KGU1 120345Z 06010KT M04/M07 A3049 RMK A01 T10381068  RH  080%=      5-min Rain = 0
KGU1 120346Z 06013KT M04/M07 A3049 RMK A01 T10381067  RH  080%=      5-min Rain = 0
KGU1 120347Z 05011KT M04/M07 A3049 RMK A01 T10381067  RH  080%=      5-min Rain = 0
KGU1 120348Z 05013KT M04/M07 A3049 RMK A01 T10381067  RH  080%=      5-min Rain = 0
KGU1 120349Z 05010KT M04/M07 A3049 RMK A01 T10371067  RH  080%=      5-min Rain = 0
KGU1 120350Z 06010KT M04/M07 A3049 RMK A01 T10371067  RH  080%=      5-min Rain = 0
KGU1 120351Z 06009KT M04/M07 A3049 RMK A01 T10361067  RH  079%=      5-min Rain = 0
KGU1 120352Z 06012KT M04/M07 A3049 RMK A01 T10361067  RH  079%=      5-min Rain = 0
KGU1 120353Z 06011G16KT M04/M07 A3049 RMK A01 T10361067  RH  079%=      5-min Rain = 0
KGU1 120354Z 06012KT M04/M07 A3049 RMK A01 T10361067  RH  079%=      5-min Rain = 0
KGU1 120355Z 07013KT M04/M07 A3049 RMK A01 T10371068  RH  079%=      5-min Rain = 0
KGU1 120356Z 06014KT M04/M07 A3049 RMK A01 T10371068  RH  079%=      5-min Rain = 0
KGU1 120357Z 06011KT M04/M07 A3049 RMK A01 T10371068  RH  079%=      5-min Rain = 0
KGU1 120358Z 06012KT M04/M07 A3049 RMK A01 T10381068  RH  079%=      5-min Rain = 0
KGU1 120359Z 06013KT M04/M07 A3049 RMK A01 T10381069  RH  079%=      5-min Rain = 0
KGU1 120400Z 06011KT M04/M07 A3049 RMK A01 T10371068  RH  079%=      5-min Rain = 0
KGU1 120401Z 07013KT M04/M07 A3049 RMK A01 T10371068  RH  079%=      5-min Rain = 0
KGU1 120402Z 06014KT M04/M07 A3049 RMK A01 T10371069  RH  079%=      5-min Rain = 0
KGU1 120403Z 05014KT M04/M07 A3049 RMK A01 T10381069  RH  079%=      5-min Rain = 0
KGU1 120404Z 06012KT M04/M07 A3049 RMK A01 T10371068  RH  079%=      5-min Rain = 0
KGU1 120405Z 07014KT M04/M07 A3049 RMK A01 T10371068  RH  079%=      5-min Rain = 0
KGU1 120406Z 07013KT M04/M07 A3049 RMK A01 T10371069  RH  079%=      5-min Rain = 0
KGU1 120407Z 06013KT M04/M07 A3049 RMK A01 T10381069  RH  079%=      5-min Rain = 0
KGU1 120408Z 06014KT M04/M07 A3049 RMK A01 T10381069  RH  079%=      5-min Rain = 0
KGU1 120409Z 06013KT M04/M07 A3049 RMK A01 T10381069  RH  079%=      5-min Rain = 0
KGU1 120410Z 06014KT M04/M07 A3049 RMK A01 T10381069  RH  079%=      5-min Rain = 0
KGU1 120411Z 07014KT M04/M07 A3049 RMK A01 T10381069  RH  079%=      5-min Rain = 0
KGU1 120412Z 07012KT M04/M07 A3049 RMK A01 T10381069  RH  079%=      5-min Rain = 0
KGU1 120413Z 06012G17KT M04/M07 A305 RMK A01 T10371068  RH  079%=      5-min Rain = 0
KGU1 120414Z 06011KT M04/M07 A305 RMK A01 T10371068  RH  079%=      5-min Rain = 0
KGU1 120415Z 06012KT M04/M07 A305 RMK A01 T10371068  RH  079%=      5-min Rain = 0
KGU1 120416Z 06014KT M04/M07 A305 RMK A01 T10371069  RH  079%=      5-min Rain = 0
KGU1 120417Z 07013KT M04/M07 A305 RMK A01 T10371069  RH  079%=      5-min Rain = 0
KGU1 120418Z 06014KT M04/M07 A305 RMK A01 T10371069  RH  079%=      5-min Rain = 0
KGU1 120419Z 06014KT M04/M07 A305 RMK A01 T10371069  RH  079%=      5-min Rain = 0
KGU1 120420Z 05013G18KT M04/M07 A305 RMK A01 T10371068  RH  079%=      5-min Rain = 0
KGU1 120421Z 05015KT M04/M07 A305 RMK A01 T10371068  RH  079%=      5-min Rain = 0
KGU1 120422Z 06013G18KT M04/M07 A305 RMK A01 T10371068  RH  079%=      5-min Rain = 0
KGU1 120423Z 06014KT M04/M07 A305 RMK A01 T10361068  RH  079%=      5-min Rain = 0
KGU1 120424Z 05013KT M04/M07 A305 RMK A01 T10371069  RH  079%=      5-min Rain = 0
KGU1 120425Z 05011KT M04/M07 A3051 RMK A01 T10371069  RH  079%=      5-min Rain = 0
KGU1 120426Z 06010KT M04/M07 A3051 RMK A01 T10371068  RH  079%=      5-min Rain = 0
KGU1 120427Z 06008KT M04/M07 A3051 RMK A01 T10361068  RH  079%=      5-min Rain = 0
KGU1 120428Z 06008KT M04/M07 A3051 RMK A01 T10361067  RH  079%=      5-min Rain = 0
KGU1 120429Z 06010KT M04/M07 A3051 RMK A01 T10361067  RH  079%=      5-min Rain = 0
KGU1 120430Z 06010G16KT M04/M07 A305 RMK A01 T10361068  RH  078%=      5-min Rain = 0
KGU1 120431Z 06011KT M04/M07 A305 RMK A01 T10361068  RH  078%=      5-min Rain = 0
KGU1 120432Z 06013KT M04/M07 A305 RMK A01 T10361068  RH  078%=      5-min Rain = 0
KGU1 120433Z 05014KT M04/M07 A305 RMK A01 T10361068  RH  078%=      5-min Rain = 0
KGU1 120434Z 06009KT M04/M07 A305 RMK A01 T10361068  RH  078%=      5-min Rain = 0
KGU1 120435Z 05012KT M04/M07 A305 RMK A01 T10361068  RH  079%=      5-min Rain = 0
KGU1 120436Z 06012G17KT M04/M07 A3049 RMK A01 T10361068  RH  078%=      5-min Rain = 0
KGU1 120437Z 06012KT M04/M07 A3049 RMK A01 T10361069  RH  078%=      5-min Rain = 0
KGU1 120438Z 06013KT M04/M07 A3049 RMK A01 T10371069  RH  078%=      5-min Rain = 0
KGU1 120439Z 06013G19KT M04/M07 A3049 RMK A01 T10371069  RH  079%=      5-min Rain = 0
KGU1 120440Z 06012KT M04/M07 A3049 RMK A01 T10371069  RH  079%=      5-min Rain = 0
KGU1 120441Z 06013KT M04/M07 A3049 RMK A01 T10371069  RH  079%=      5-min Rain = 0
KGU1 120442Z 06015KT M04/M07 A3049 RMK A01 T10371069  RH  079%=      5-min Rain = 0
KGU1 120443Z 06013KT M04/M07 A3049 RMK A01 T10371069  RH  078%=      5-min Rain = 0
KGU1 120444Z 06015KT M04/M07 A3049 RMK A01 T10371069  RH  078%=      5-min Rain = 0
KGU1 120445Z 06011G16KT M04/M07 A3049 RMK A01 T10371069  RH  078%=      5-min Rain = 0
KGU1 120446Z 06014KT M04/M07 A3049 RMK A01 T10371069  RH  078%=      5-min Rain = 0
KGU1 120447Z 07013KT M04/M07 A305 RMK A01 T10371069  RH  078%=      5-min Rain = 0
KGU1 120448Z 06014KT M04/M07 A305 RMK A01 T10361069  RH  078%=      5-min Rain = 0
KGU1 120449Z 07013KT M04/M07 A305 RMK A01 T10361070  RH  078%=      5-min Rain = 0
KGU1 120450Z 07012KT M04/M07 A305 RMK A01 T10361070  RH  078%=      5-min Rain = 0
KGU1 120451Z 06012G17KT M04/M07 A305 RMK A01 T10361069  RH  078%=      5-min Rain = 0
KGU1 120452Z 06012KT M04/M07 A305 RMK A01 T10361070  RH  077%=      5-min Rain = 0
KGU1 120453Z 06013KT M04/M07 A305 RMK A01 T10361070  RH  077%=      5-min Rain = 0
KGU1 120454Z 06011KT M04/M07 A305 RMK A01 T10351070  RH  077%=      5-min Rain = 0
KGU1 120455Z 06013KT M04/M07 A3051 RMK A01 T10351070  RH  077%=      5-min Rain = 0
KGU1 120456Z 06009KT M04/M07 A3051 RMK A01 T10351070  RH  077%=      5-min Rain = 0
KGU1 120457Z 06012G18KT M03/M07 A3051 RMK A01 T10341070  RH  076%=      5-min Rain = 0
KGU1 120458Z 06014KT M03/M07 A3051 RMK A01 T10341071  RH  076%=      5-min Rain = 0
KGU1 120459Z 07013KT M03/M07 A3051 RMK A01 T10341071  RH  076%=      5-min Rain = 0
KGU1 120500Z 06013KT M03/M07 A3051 RMK A01 T10341071  RH  075%=      5-min Rain = 0
KGU1 120501Z 06011KT M03/M07 A3051 RMK A01 T10331070  RH  075%=      5-min Rain = 0
KGU1 120502Z 06012G17KT M03/M07 A3051 RMK A01 T10331070  RH  075%=      5-min Rain = 0
KGU1 120503Z 06010KT M03/M07 A305 RMK A01 T10331071  RH  075%=      5-min Rain = 0
KGU1 120504Z 06011KT M03/M07 A305 RMK A01 T10331070  RH  075%=      5-min Rain = 0
KGU1 120505Z 07013KT M03/M07 A305 RMK A01 T10321070  RH  075%=      5-min Rain = 0
KGU1 120506Z 06012G17KT M03/M07 A305 RMK A01 T10331072  RH  075%=      5-min Rain = 0
KGU1 120507Z 06013KT M03/M07 A305 RMK A01 T10331072  RH  075%=      5-min Rain = 0
KGU1 120508Z 06013KT M03/M07 A305 RMK A01 T10331071  RH  075%=      5-min Rain = 0
KGU1 120509Z 05013G20KT M03/M07 A305 RMK A01 T10321071  RH  075%=      5-min Rain = 0
KGU1 120510Z 05013KT M03/M07 A3049 RMK A01 T10321072  RH  074%=      5-min Rain = 0
KGU1 120511Z 06013KT M03/M07 A3049 RMK A01 T10321072  RH  074%=      5-min Rain = 0
KGU1 120512Z 06013G19KT M03/M07 A3049 RMK A01 T10321072  RH  074%=      5-min Rain = 0
KGU1 120513Z 06013KT M03/M07 A3049 RMK A01 T10321072  RH  074%=      5-min Rain = 0
KGU1 120514Z 06012KT M03/M07 A305 RMK A01 T10331072  RH  074%=      5-min Rain = 0
KGU1 120515Z 07014KT M03/M07 A305 RMK A01 T10331072  RH  075%=      5-min Rain = 0
KGU1 120516Z 06014KT M03/M07 A305 RMK A01 T10341072  RH  075%=      5-min Rain = 0
KGU1 120517Z 07013KT M03/M07 A305 RMK A01 T10341072  RH  075%=      5-min Rain = 0
KGU1 120518Z 06013KT M03/M07 A305 RMK A01 T10341072  RH  075%=      5-min Rain = 0
KGU1 120519Z 06012G17KT M03/M07 A305 RMK A01 T10331072  RH  075%=      5-min Rain = 0
KGU1 120520Z 05013KT M03/M07 A305 RMK A01 T10331072  RH  075%=      5-min Rain = 0
KGU1 120521Z 06012KT M03/M07 A305 RMK A01 T10331072  RH  074%=      5-min Rain = 0
KGU1 120522Z 06011KT M03/M07 A3049 RMK A01 T10331072  RH  074%=      5-min Rain = 0
KGU1 120523Z 06014KT M03/M07 A3049 RMK A01 T10321072  RH  074%=      5-min Rain = 0
KGU1 120524Z 06013KT M03/M07 A3049 RMK A01 T10321073  RH  074%=      5-min Rain = 0
KGU1 120525Z 07013KT M03/M07 A3049 RMK A01 T10321073  RH  074%=      5-min Rain = 0
KGU1 120526Z 06012KT M03/M07 A3049 RMK A01 T10321073  RH  074%=      5-min Rain = 0
KGU1 120527Z 06012KT M03/M07 A3049 RMK A01 T10321073  RH  074%=      5-min Rain = 0
KGU1 120528Z 06011KT M03/M07 A3049 RMK A01 T10321073  RH  073%=      5-min Rain = 0
KGU1 120529Z 06014KT M03/M07 A3049 RMK A01 T10321073  RH  073%=      5-min Rain = 0
KGU1 120530Z 06015KT M03/M07 A3048 RMK A01 T10321074  RH  073%=      5-min Rain = 0
KGU1 120531Z 05014KT M03/M07 A3048 RMK A01 T10321074  RH  073%=      5-min Rain = 0
KGU1 120532Z 05013KT M03/M07 A3048 RMK A01 T10321074  RH  073%=      5-min Rain = 0
KGU1 120533Z 05014G19KT M03/M07 A3048 RMK A01 T10321074  RH  073%=      5-min Rain = 0
KGU1 120534Z 05015KT M03/M08 A3048 RMK A01 T10321075  RH  072%=      5-min Rain = 0
KGU1 120535Z 05013KT M03/M08 A3048 RMK A01 T10321075  RH  072%=      5-min Rain = 0
KGU1 120536Z 05015KT M03/M08 A3048 RMK A01 T10321076  RH  072%=      5-min Rain = 0
KGU1 120537Z 05014KT M03/M08 A3048 RMK A01 T10311076  RH  071%=      5-min Rain = 0
KGU1 120538Z 05013KT M03/M08 A3048 RMK A01 T10311076  RH  071%=      5-min Rain = 0
KGU1 120539Z 05014KT M03/M08 A3049 RMK A01 T10311077  RH  070%=      5-min Rain = 0
KGU1 120540Z 06013KT M03/M08 A3049 RMK A01 T10301078  RH  070%=      5-min Rain = 0
KGU1 120541Z 06014G19KT M03/M08 A3049 RMK A01 T10301079  RH  069%=      5-min Rain = 0
KGU1 120542Z 06011KT M03/M08 A3049 RMK A01 T10301081  RH  068%=      5-min Rain = 0
KGU1 120543Z 06010KT M03/M08 A3049 RMK A01 T10301081  RH  068%=      5-min Rain = 0
KGU1 120544Z 07012G17KT M03/M08 A3049 RMK A01 T10301080  RH  068%=      5-min Rain = 0
KGU1 120545Z 06012KT M03/M08 A3049 RMK A01 T10301080  RH  069%=      5-min Rain = 0
KGU1 120546Z 07015KT M03/M08 A3049 RMK A01 T10311080  RH  069%=      5-min Rain = 0
KGU1 120547Z 06013KT M03/M08 A3049 RMK A01 T10311081  RH  069%=      5-min Rain = 0
KGU1 120548Z 07013KT M03/M08 A3049 RMK A01 T10311081  RH  068%=      5-min Rain = 0
KGU1 120549Z 06011KT M03/M08 A3049 RMK A01 T10311080  RH  069%=      5-min Rain = 0
KGU1 120550Z 06011KT M03/M08 A305 RMK A01 T10301080  RH  069%=      5-min Rain = 0
KGU1 120551Z 06011KT M03/M08 A305 RMK A01 T10301080  RH  069%=      5-min Rain = 0
KGU1 120552Z 06012G17KT M03/M08 A305 RMK A01 T10301080  RH  068%=      5-min Rain = 0
KGU1 120553Z 07014KT M03/M08 A305 RMK A01 T10301082  RH  067%=      5-min Rain = 0
KGU1 120554Z 06014KT M03/M08 A305 RMK A01 T10301083  RH  067%=      5-min Rain = 0
KGU1 120555Z 06013KT M03/M08 A305 RMK A01 T10301084  RH  066%=      5-min Rain = 0
KGU1 120556Z 06012KT M03/M09 A305 RMK A01 T10301085  RH  066%=      5-min Rain = 0
KGU1 120557Z 06011KT M03/M08 A305 RMK A01 T10301084  RH  066%=      5-min Rain = 0
KGU1 120558Z 06010KT M03/M08 A305 RMK A01 T10291084  RH  066%=      5-min Rain = 0
KGU1 120559Z 06011KT M03/M08 A305 RMK A01 T10291084  RH  065%=      5-min Rain = 0

Page generated in 0.1346 seconds.